Cuivre River (Missouri), Troy (05514500)

StateMissouriLatestPoor (92 cfs)
RiverCuivre RiverRatingObservedEstimated
Updated2021-01-20 1:30 (6 minutes ago)Flood - The river is flooding. Obstacles can be treacherous or deadly. The river should be avoided at this stage for casual trips and definitely for the inexperienced. Trips should be attempted only with protective gear and equipment.Flood(none)2644
Discharge92 cfs (median: 85 cfs)High - The river is high and potentially dangerous, especially for the young and / or inexperienced. Normal stream obstacles are sometimes difficult to navigate. Extended distances can be attempted, but canoe travel may not be advisable.High(none)694
Height(none)Good - Conditions are ideal for a canoe or kayak. Boats typically will drag on fewer than one-quarter of riffles, if at all, and portages are unnecessary or rare. Normal float lengths can be attempted without a problem.Good(none)209
TrendSteady (falling over 24 hours)Low - River is low but can still be floated. Some riffles are okay but most come with significant dragging and might need a portage. Float lengths should be reduced to accommodate low flow, dragging, and portages.Low(none)131
USGSExternal icon USGS Site (External icon Google Maps)Poor - River is too low to float comfortably. Most or all riffles will drag or must be portaged and some obstacles (such as slick shelf rock) cause undue problems. Avoid the river at this stage for casual paddling trips.Poor(none)32

Trending Data

Plot Image

Trips for Cuivre River (Missouri), Troy (05514500)

DateStartEndDistanceConditionDischargeHeightFishingDetails

A total of 0 rows are displayed.

Condition Descriptions

Fishing Conditions

Fish Species

Notes

Classic Trip List

The classic River Trips application is still available for use. It is updated with the new system using a data retrofit. It is no longer maintained. The original River Trips application is no longer updated (as of 1 Dec 2016) but can be checked for errors or for the condition of the data before it was converted to the new system.

Gauge Data Table

ObservationHeightDischargeMaximum
Discharge
Minimum
Discharge
Mean
Discharge
P05P10P20P25P50
(Median)
P75P80P90P95
2021-01-20 01:30 92 7080 (1988) 2 (1954) 416 4 9 16 28 85 335 475 1080 2260
2021-01-20 01:00 5.81 92 7080 (1988) 2 (1954) 416 4 9 16 28 85 335 475 1080 2260
2021-01-20 00:30 5.81 92 7080 (1988) 2 (1954) 416 4 9 16 28 85 335 475 1080 2260
2021-01-20 00:00 5.81 92 7080 (1988) 2 (1954) 416 4 9 16 28 85 335 475 1080 2260
2021-01-19 23:30 5.80 91 8000 (1933) 2 (1954) 562 3 8 17 24 89 340 497 1680 4140
2021-01-19 23:00 5.76 84 8000 (1933) 2 (1954) 562 3 8 17 24 89 340 497 1680 4140
2021-01-19 22:30 5.75 82 8000 (1933) 2 (1954) 562 3 8 17 24 89 340 497 1680 4140
2021-01-19 22:00 5.80 91 8000 (1933) 2 (1954) 562 3 8 17 24 89 340 497 1680 4140
2021-01-19 21:30 5.76 84 8000 (1933) 2 (1954) 562 3 8 17 24 89 340 497 1680 4140
2021-01-19 21:00 5.75 82 8000 (1933) 2 (1954) 562 3 8 17 24 89 340 497 1680 4140
2021-01-19 20:30 5.81 92 8000 (1933) 2 (1954) 562 3 8 17 24 89 340 497 1680 4140
2021-01-19 20:00 5.76 84 8000 (1933) 2 (1954) 562 3 8 17 24 89 340 497 1680 4140
2021-01-19 19:30 5.75 82 8000 (1933) 2 (1954) 562 3 8 17 24 89 340 497 1680 4140
2021-01-19 19:00 5.76 84 8000 (1933) 2 (1954) 562 3 8 17 24 89 340 497 1680 4140
2021-01-19 18:30 5.76 84 8000 (1933) 2 (1954) 562 3 8 17 24 89 340 497 1680 4140
2021-01-19 18:00 5.81 92 8000 (1933) 2 (1954) 562 3 8 17 24 89 340 497 1680 4140
2021-01-19 17:30 5.81 92 8000 (1933) 2 (1954) 562 3 8 17 24 89 340 497 1680 4140
2021-01-19 17:00 5.81 92 8000 (1933) 2 (1954) 562 3 8 17 24 89 340 497 1680 4140
2021-01-19 16:30 5.78 87 8000 (1933) 2 (1954) 562 3 8 17 24 89 340 497 1680 4140
2021-01-19 16:00 5.76 84 8000 (1933) 2 (1954) 562 3 8 17 24 89 340 497 1680 4140
2021-01-19 15:30 5.77 86 8000 (1933) 2 (1954) 562 3 8 17 24 89 340 497 1680 4140
2021-01-19 15:00 5.75 82 8000 (1933) 2 (1954) 562 3 8 17 24 89 340 497 1680 4140
2021-01-19 14:30 5.73 79 8000 (1933) 2 (1954) 562 3 8 17 24 89 340 497 1680 4140
2021-01-19 14:00 5.74 81 8000 (1933) 2 (1954) 562 3 8 17 24 89 340 497 1680 4140
2021-01-19 13:30 5.77 86 8000 (1933) 2 (1954) 562 3 8 17 24 89 340 497 1680 4140
2021-01-19 13:00 5.73 79 8000 (1933) 2 (1954) 562 3 8 17 24 89 340 497 1680 4140
2021-01-19 12:30 5.76 84 8000 (1933) 2 (1954) 562 3 8 17 24 89 340 497 1680 4140
2021-01-19 12:00 5.75 82 8000 (1933) 2 (1954) 562 3 8 17 24 89 340 497 1680 4140
2021-01-19 11:30 5.75 82 8000 (1933) 2 (1954) 562 3 8 17 24 89 340 497 1680 4140
2021-01-19 11:00 5.82 94 8000 (1933) 2 (1954) 562 3 8 17 24 89 340 497 1680 4140
2021-01-19 10:30 5.82 94 8000 (1933) 2 (1954) 562 3 8 17 24 89 340 497 1680 4140
2021-01-19 10:00 5.82 94 8000 (1933) 2 (1954) 562 3 8 17 24 89 340 497 1680 4140
2021-01-19 09:30 5.82 94 8000 (1933) 2 (1954) 562 3 8 17 24 89 340 497 1680 4140
2021-01-19 09:00 5.82 94 8000 (1933) 2 (1954) 562 3 8 17 24 89 340 497 1680 4140
2021-01-19 08:30 5.82 94 8000 (1933) 2 (1954) 562 3 8 17 24 89 340 497 1680 4140
2021-01-19 08:00 5.82 94 8000 (1933) 2 (1954) 562 3 8 17 24 89 340 497 1680 4140
2021-01-19 07:30 5.82 94 8000 (1933) 2 (1954) 562 3 8 17 24 89 340 497 1680 4140
2021-01-19 07:00 5.82 94 8000 (1933) 2 (1954) 562 3 8 17 24 89 340 497 1680 4140
2021-01-19 06:30 5.82 94 8000 (1933) 2 (1954) 562 3 8 17 24 89 340 497 1680 4140
2021-01-19 06:00 5.83 96 8000 (1933) 2 (1954) 562 3 8 17 24 89 340 497 1680 4140
2021-01-19 05:30 5.83 96 8000 (1933) 2 (1954) 562 3 8 17 24 89 340 497 1680 4140
2021-01-19 05:00 5.82 94 8000 (1933) 2 (1954) 562 3 8 17 24 89 340 497 1680 4140
2021-01-19 04:30 5.83 96 8000 (1933) 2 (1954) 562 3 8 17 24 89 340 497 1680 4140
2021-01-19 04:00 5.83 96 8000 (1933) 2 (1954) 562 3 8 17 24 89 340 497 1680 4140
2021-01-19 03:30 5.83 96 8000 (1933) 2 (1954) 562 3 8 17 24 89 340 497 1680 4140
2021-01-19 03:00 5.83 96 8000 (1933) 2 (1954) 562 3 8 17 24 89 340 497 1680 4140
2021-01-19 02:30 5.83 96 8000 (1933) 2 (1954) 562 3 8 17 24 89 340 497 1680 4140
2021-01-19 02:00 5.83 96 8000 (1933) 2 (1954) 562 3 8 17 24 89 340 497 1680 4140
2021-01-19 01:30 5.83 96 8000 (1933) 2 (1954) 562 3 8 17 24 89 340 497 1680 4140
2021-01-19 01:00 5.83 96 8000 (1933) 2 (1954) 562 3 8 17 24 89 340 497 1680 4140
2021-01-19 00:30 5.83 96 8000 (1933) 2 (1954) 562 3 8 17 24 89 340 497 1680 4140
2021-01-19 00:00 5.83 96 8000 (1933) 2 (1954) 562 3 8 17 24 89 340 497 1680 4140
2021-01-18 23:30 5.83 96 11600 (2020) 1 (1954) 553 4 8 16 26 94 340 542 985 2390
2021-01-18 23:00 5.83 96 11600 (2020) 1 (1954) 553 4 8 16 26 94 340 542 985 2390
2021-01-18 22:30 5.84 98 11600 (2020) 1 (1954) 553 4 8 16 26 94 340 542 985 2390
2021-01-18 22:00 5.83 96 11600 (2020) 1 (1954) 553 4 8 16 26 94 340 542 985 2390
2021-01-18 21:30 5.83 96 11600 (2020) 1 (1954) 553 4 8 16 26 94 340 542 985 2390
2021-01-18 21:00 5.83 96 11600 (2020) 1 (1954) 553 4 8 16 26 94 340 542 985 2390
2021-01-18 20:30 5.83 96 11600 (2020) 1 (1954) 553 4 8 16 26 94 340 542 985 2390
2021-01-18 20:00 5.83 96 11600 (2020) 1 (1954) 553 4 8 16 26 94 340 542 985 2390
2021-01-18 19:30 5.83 96 11600 (2020) 1 (1954) 553 4 8 16 26 94 340 542 985 2390
2021-01-18 19:00 5.83 96 11600 (2020) 1 (1954) 553 4 8 16 26 94 340 542 985 2390
2021-01-18 18:30 5.82 94 11600 (2020) 1 (1954) 553 4 8 16 26 94 340 542 985 2390
2021-01-18 18:00 5.82 94 11600 (2020) 1 (1954) 553 4 8 16 26 94 340 542 985 2390
2021-01-18 17:30 5.82 94 11600 (2020) 1 (1954) 553 4 8 16 26 94 340 542 985 2390
2021-01-18 17:00 5.79 89 11600 (2020) 1 (1954) 553 4 8 16 26 94 340 542 985 2390
2021-01-18 16:30 5.82 94 11600 (2020) 1 (1954) 553 4 8 16 26 94 340 542 985 2390
2021-01-18 16:00 5.82 94 11600 (2020) 1 (1954) 553 4 8 16 26 94 340 542 985 2390
2021-01-18 15:30 5.82 94 11600 (2020) 1 (1954) 553 4 8 16 26 94 340 542 985 2390
2021-01-18 15:00 5.82 94 11600 (2020) 1 (1954) 553 4 8 16 26 94 340 542 985 2390
2021-01-18 14:30 5.81 92 11600 (2020) 1 (1954) 553 4 8 16 26 94 340 542 985 2390
2021-01-18 14:00 5.82 94 11600 (2020) 1 (1954) 553 4 8 16 26 94 340 542 985 2390
2021-01-18 13:30 5.82 94 11600 (2020) 1 (1954) 553 4 8 16 26 94 340 542 985 2390
2021-01-18 13:00 5.83 96 11600 (2020) 1 (1954) 553 4 8 16 26 94 340 542 985 2390
2021-01-18 12:30 5.83 96 11600 (2020) 1 (1954) 553 4 8 16 26 94 340 542 985 2390
2021-01-18 12:00 5.83 96 11600 (2020) 1 (1954) 553 4 8 16 26 94 340 542 985 2390
2021-01-18 11:30 5.82 94 11600 (2020) 1 (1954) 553 4 8 16 26 94 340 542 985 2390
2021-01-18 11:00 5.80 91 11600 (2020) 1 (1954) 553 4 8 16 26 94 340 542 985 2390
2021-01-18 10:30 5.83 96 11600 (2020) 1 (1954) 553 4 8 16 26 94 340 542 985 2390
2021-01-18 10:00 5.83 96 11600 (2020) 1 (1954) 553 4 8 16 26 94 340 542 985 2390
2021-01-18 09:30 5.83 96 11600 (2020) 1 (1954) 553 4 8 16 26 94 340 542 985 2390
2021-01-18 09:00 5.83 96 11600 (2020) 1 (1954) 553 4 8 16 26 94 340 542 985 2390
2021-01-18 08:30 5.83 96 11600 (2020) 1 (1954) 553 4 8 16 26 94 340 542 985 2390
2021-01-18 08:00 5.83 96 11600 (2020) 1 (1954) 553 4 8 16 26 94 340 542 985 2390
2021-01-18 07:30 5.83 96 11600 (2020) 1 (1954) 553 4 8 16 26 94 340 542 985 2390
2021-01-18 07:00 5.83 96 11600 (2020) 1 (1954) 553 4 8 16 26 94 340 542 985 2390
2021-01-18 06:30 5.83 96 11600 (2020) 1 (1954) 553 4 8 16 26 94 340 542 985 2390
2021-01-18 06:00 5.83 96 11600 (2020) 1 (1954) 553 4 8 16 26 94 340 542 985 2390
2021-01-18 05:30 5.83 96 11600 (2020) 1 (1954) 553 4 8 16 26 94 340 542 985 2390
2021-01-18 05:00 5.83 96 11600 (2020) 1 (1954) 553 4 8 16 26 94 340 542 985 2390
2021-01-18 04:30 5.83 96 11600 (2020) 1 (1954) 553 4 8 16 26 94 340 542 985 2390
2021-01-18 04:00 5.83 96 11600 (2020) 1 (1954) 553 4 8 16 26 94 340 542 985 2390
2021-01-18 03:30 5.83 96 11600 (2020) 1 (1954) 553 4 8 16 26 94 340 542 985 2390
2021-01-18 03:00 5.84 98 11600 (2020) 1 (1954) 553 4 8 16 26 94 340 542 985 2390
2021-01-18 02:30 5.84 98 11600 (2020) 1 (1954) 553 4 8 16 26 94 340 542 985 2390
2021-01-18 02:00 5.84 98 11600 (2020) 1 (1954) 553 4 8 16 26 94 340 542 985 2390
2021-01-18 01:30 5.84 98 11600 (2020) 1 (1954) 553 4 8 16 26 94 340 542 985 2390
2021-01-18 01:00 5.84 98 11600 (2020) 1 (1954) 553 4 8 16 26 94 340 542 985 2390
2021-01-18 00:30 5.84 98 11600 (2020) 1 (1954) 553 4 8 16 26 94 340 542 985 2390
2021-01-18 00:00 5.84 98 11600 (2020) 1 (1954) 553 4 8 16 26 94 340 542 985 2390
2021-01-17 23:30 5.79 89 11400 (1969) 1 (1954) 418 4 7 17 27 102 322 413 790 1390
2021-01-17 23:00 5.79 89 11400 (1969) 1 (1954) 418 4 7 17 27 102 322 413 790 1390
2021-01-17 22:30 5.84 98 11400 (1969) 1 (1954) 418 4 7 17 27 102 322 413 790 1390
2021-01-17 22:00 5.84 98 11400 (1969) 1 (1954) 418 4 7 17 27 102 322 413 790 1390
2021-01-17 21:30 5.84 98 11400 (1969) 1 (1954) 418 4 7 17 27 102 322 413 790 1390
2021-01-17 21:00 5.84 98 11400 (1969) 1 (1954) 418 4 7 17 27 102 322 413 790 1390
2021-01-17 20:30 5.84 98 11400 (1969) 1 (1954) 418 4 7 17 27 102 322 413 790 1390
2021-01-17 20:00 5.82 94 11400 (1969) 1 (1954) 418 4 7 17 27 102 322 413 790 1390
2021-01-17 19:30 5.84 98 11400 (1969) 1 (1954) 418 4 7 17 27 102 322 413 790 1390
2021-01-17 19:00 5.82 94 11400 (1969) 1 (1954) 418 4 7 17 27 102 322 413 790 1390
2021-01-17 18:30 5.79 89 11400 (1969) 1 (1954) 418 4 7 17 27 102 322 413 790 1390
2021-01-17 18:00 5.79 89 11400 (1969) 1 (1954) 418 4 7 17 27 102 322 413 790 1390
2021-01-17 17:30 5.84 98 11400 (1969) 1 (1954) 418 4 7 17 27 102 322 413 790 1390
2021-01-17 17:00 5.84 98 11400 (1969) 1 (1954) 418 4 7 17 27 102 322 413 790 1390
2021-01-17 16:30 5.78 87 11400 (1969) 1 (1954) 418 4 7 17 27 102 322 413 790 1390
2021-01-17 16:00 5.80 91 11400 (1969) 1 (1954) 418 4 7 17 27 102 322 413 790 1390
2021-01-17 15:30 89 11400 (1969) 1 (1954) 418 4 7 17 27 102 322 413 790 1390
2021-01-17 15:00 5.78 87 11400 (1969) 1 (1954) 418 4 7 17 27 102 322 413 790 1390
2021-01-17 14:30 5.78 87 11400 (1969) 1 (1954) 418 4 7 17 27 102 322 413 790 1390
2021-01-17 14:00 5.76 84 11400 (1969) 1 (1954) 418 4 7 17 27 102 322 413 790 1390
2021-01-17 13:30 5.78 87 11400 (1969) 1 (1954) 418 4 7 17 27 102 322 413 790 1390
2021-01-17 13:00 5.79 89 11400 (1969) 1 (1954) 418 4 7 17 27 102 322 413 790 1390
2021-01-17 12:30 5.77 86 11400 (1969) 1 (1954) 418 4 7 17 27 102 322 413 790 1390
2021-01-17 12:00 5.76 84 11400 (1969) 1 (1954) 418 4 7 17 27 102 322 413 790 1390
2021-01-17 11:30 5.76 84 11400 (1969) 1 (1954) 418 4 7 17 27 102 322 413 790 1390
2021-01-17 11:00 5.77 86 11400 (1969) 1 (1954) 418 4 7 17 27 102 322 413 790 1390
2021-01-17 10:30 5.77 86 11400 (1969) 1 (1954) 418 4 7 17 27 102 322 413 790 1390
2021-01-17 10:00 5.77 86 11400 (1969) 1 (1954) 418 4 7 17 27 102 322 413 790 1390
2021-01-17 09:30 5.78 87 11400 (1969) 1 (1954) 418 4 7 17 27 102 322 413 790 1390
2021-01-17 09:00 5.78 87 11400 (1969) 1 (1954) 418 4 7 17 27 102 322 413 790 1390
2021-01-17 08:30 5.79 89 11400 (1969) 1 (1954) 418 4 7 17 27 102 322 413 790 1390
2021-01-17 08:00 5.78 87 11400 (1969) 1 (1954) 418 4 7 17 27 102 322 413 790 1390
2021-01-17 07:30 5.79 89 11400 (1969) 1 (1954) 418 4 7 17 27 102 322 413 790 1390
2021-01-17 07:00 5.79 89 11400 (1969) 1 (1954) 418 4 7 17 27 102 322 413 790 1390
2021-01-17 06:30 5.77 86 11400 (1969) 1 (1954) 418 4 7 17 27 102 322 413 790 1390
2021-01-17 06:00 5.80 91 11400 (1969) 1 (1954) 418 4 7 17 27 102 322 413 790 1390
2021-01-17 05:30 5.81 92 11400 (1969) 1 (1954) 418 4 7 17 27 102 322 413 790 1390
2021-01-17 05:00 5.80 91 11400 (1969) 1 (1954) 418 4 7 17 27 102 322 413 790 1390
2021-01-17 04:30 5.82 94 11400 (1969) 1 (1954) 418 4 7 17 27 102 322 413 790 1390
2021-01-17 04:00 5.81 92 11400 (1969) 1 (1954) 418 4 7 17 27 102 322 413 790 1390
2021-01-17 03:30 5.80 91 11400 (1969) 1 (1954) 418 4 7 17 27 102 322 413 790 1390
2021-01-17 03:00 5.85 99 11400 (1969) 1 (1954) 418 4 7 17 27 102 322 413 790 1390
2021-01-17 02:30 5.86 101 11400 (1969) 1 (1954) 418 4 7 17 27 102 322 413 790 1390
2021-01-17 02:00 5.86 101 11400 (1969) 1 (1954) 418 4 7 17 27 102 322 413 790 1390
2021-01-17 01:30 5.86 101 11400 (1969) 1 (1954) 418 4 7 17 27 102 322 413 790 1390
2021-01-16 23:00 5.83 96 5410 (1969) 1 (1954) 384 4 7 18 31 108 321 452 1200 1770
2021-01-16 22:30 5.81 92 5410 (1969) 1 (1954) 384 4 7 18 31 108 321 452 1200 1770
2021-01-16 22:00 5.82 94 5410 (1969) 1 (1954) 384 4 7 18 31 108 321 452 1200 1770
2021-01-16 21:30 5.86 101 5410 (1969) 1 (1954) 384 4 7 18 31 108 321 452 1200 1770
2021-01-16 21:00 5.80 91 5410 (1969) 1 (1954) 384 4 7 18 31 108 321 452 1200 1770
2021-01-16 20:30 5.82 94 5410 (1969) 1 (1954) 384 4 7 18 31 108 321 452 1200 1770
2021-01-16 20:00 5.84 98 5410 (1969) 1 (1954) 384 4 7 18 31 108 321 452 1200 1770
2021-01-16 19:30 5.80 91 5410 (1969) 1 (1954) 384 4 7 18 31 108 321 452 1200 1770
2021-01-16 19:00 5.82 94 5410 (1969) 1 (1954) 384 4 7 18 31 108 321 452 1200 1770
2021-01-16 18:30 5.83 96 5410 (1969) 1 (1954) 384 4 7 18 31 108 321 452 1200 1770
2021-01-16 18:00 5.78 87 5410 (1969) 1 (1954) 384 4 7 18 31 108 321 452 1200 1770
2021-01-16 17:30 5.80 91 5410 (1969) 1 (1954) 384 4 7 18 31 108 321 452 1200 1770
2021-01-16 17:00 5.81 92 5410 (1969) 1 (1954) 384 4 7 18 31 108 321 452 1200 1770
2021-01-16 16:30 5.82 94 5410 (1969) 1 (1954) 384 4 7 18 31 108 321 452 1200 1770
2021-01-16 16:00 5.80 91 5410 (1969) 1 (1954) 384 4 7 18 31 108 321 452 1200 1770
2021-01-16 15:30 5.79 89 5410 (1969) 1 (1954) 384 4 7 18 31 108 321 452 1200 1770
2021-01-16 15:00 5.79 89 5410 (1969) 1 (1954) 384 4 7 18 31 108 321 452 1200 1770
2021-01-16 14:30 5.80 91 5410 (1969) 1 (1954) 384 4 7 18 31 108 321 452 1200 1770
2021-01-16 14:00 5.83 96 5410 (1969) 1 (1954) 384 4 7 18 31 108 321 452 1200 1770
2021-01-16 13:30 5.80 91 5410 (1969) 1 (1954) 384 4 7 18 31 108 321 452 1200 1770
2021-01-16 13:00 5.79 89 5410 (1969) 1 (1954) 384 4 7 18 31 108 321 452 1200 1770
2021-01-16 12:30 5.80 91 5410 (1969) 1 (1954) 384 4 7 18 31 108 321 452 1200 1770
2021-01-16 12:00 5.79 89 5410 (1969) 1 (1954) 384 4 7 18 31 108 321 452 1200 1770
2021-01-16 11:30 5.79 89 5410 (1969) 1 (1954) 384 4 7 18 31 108 321 452 1200 1770
2021-01-16 11:00 5.77 86 5410 (1969) 1 (1954) 384 4 7 18 31 108 321 452 1200 1770
2021-01-16 10:30 5.79 89 5410 (1969) 1 (1954) 384 4 7 18 31 108 321 452 1200 1770
2021-01-16 10:00 5.78 87 5410 (1969) 1 (1954) 384 4 7 18 31 108 321 452 1200 1770
2021-01-16 09:30 5.79 89 5410 (1969) 1 (1954) 384 4 7 18 31 108 321 452 1200 1770
2021-01-16 09:00 5.80 91 5410 (1969) 1 (1954) 384 4 7 18 31 108 321 452 1200 1770
2021-01-16 08:30 5.80 91 5410 (1969) 1 (1954) 384 4 7 18 31 108 321 452 1200 1770
2021-01-16 08:00 5.80 91 5410 (1969) 1 (1954) 384 4 7 18 31 108 321 452 1200 1770
2021-01-16 07:30 5.82 94 5410 (1969) 1 (1954) 384 4 7 18 31 108 321 452 1200 1770
2021-01-16 07:00 5.84 98 5410 (1969) 1 (1954) 384 4 7 18 31 108 321 452 1200 1770
2021-01-16 06:30 5.87 103 5410 (1969) 1 (1954) 384 4 7 18 31 108 321 452 1200 1770
2021-01-16 06:00 5.81 92 5410 (1969) 1 (1954) 384 4 7 18 31 108 321 452 1200 1770
2021-01-16 05:30 5.82 94 5410 (1969) 1 (1954) 384 4 7 18 31 108 321 452 1200 1770
2021-01-16 05:00 5.88 105 5410 (1969) 1 (1954) 384 4 7 18 31 108 321 452 1200 1770
2021-01-16 04:30 5.88 105 5410 (1969) 1 (1954) 384 4 7 18 31 108 321 452 1200 1770
2021-01-16 04:00 5.88 105 5410 (1969) 1 (1954) 384 4 7 18 31 108 321 452 1200 1770
2021-01-16 03:30 5.88 105 5410 (1969) 1 (1954) 384 4 7 18 31 108 321 452 1200 1770
2021-01-16 03:00 5.84 98 5410 (1969) 1 (1954) 384 4 7 18 31 108 321 452 1200 1770
2021-01-16 02:30 5.88 105 5410 (1969) 1 (1954) 384 4 7 18 31 108 321 452 1200 1770
2021-01-16 02:00 5.88 105 5410 (1969) 1 (1954) 384 4 7 18 31 108 321 452 1200 1770
2021-01-16 01:30 5.83 96 5410 (1969) 1 (1954) 384 4 7 18 31 108 321 452 1200 1770
2021-01-16 01:00 5.87 103 5410 (1969) 1 (1954) 384 4 7 18 31 108 321 452 1200 1770
2021-01-16 00:30 5.88 105 5410 (1969) 1 (1954) 384 4 7 18 31 108 321 452 1200 1770
2021-01-16 00:00 5.88 105 5410 (1969) 1 (1954) 384 4 7 18 31 108 321 452 1200 1770
2021-01-15 23:30 5.88 105 11600 (1937) 1 (1954) 591 4 7 20 29 106 283 477 1940 2620
2021-01-15 23:00 5.89 107 11600 (1937) 1 (1954) 591 4 7 20 29 106 283 477 1940 2620
2021-01-15 22:30 5.88 105 11600 (1937) 1 (1954) 591 4 7 20 29 106 283 477 1940 2620
2021-01-15 22:00 5.88 105 11600 (1937) 1 (1954) 591 4 7 20 29 106 283 477 1940 2620
2021-01-15 21:30 5.89 107 11600 (1937) 1 (1954) 591 4 7 20 29 106 283 477 1940 2620
2021-01-15 21:00 5.88 105 11600 (1937) 1 (1954) 591 4 7 20 29 106 283 477 1940 2620
2021-01-15 20:30 5.88 105 11600 (1937) 1 (1954) 591 4 7 20 29 106 283 477 1940 2620
2021-01-15 20:00 5.89 107 11600 (1937) 1 (1954) 591 4 7 20 29 106 283 477 1940 2620
2021-01-15 19:30 5.84 98 11600 (1937) 1 (1954) 591 4 7 20 29 106 283 477 1940 2620
2021-01-15 19:00 5.88 105 11600 (1937) 1 (1954) 591 4 7 20 29 106 283 477 1940 2620
2021-01-15 18:30 5.88 105 11600 (1937) 1 (1954) 591 4 7 20 29 106 283 477 1940 2620
2021-01-15 18:00 5.88 105 11600 (1937) 1 (1954) 591 4 7 20 29 106 283 477 1940 2620
2021-01-15 17:30 5.87 103 11600 (1937) 1 (1954) 591 4 7 20 29 106 283 477 1940 2620
2021-01-15 17:00 5.84 98 11600 (1937) 1 (1954) 591 4 7 20 29 106 283 477 1940 2620
2021-01-15 16:30 5.82 94 11600 (1937) 1 (1954) 591 4 7 20 29 106 283 477 1940 2620
2021-01-15 16:00 5.83 96 11600 (1937) 1 (1954) 591 4 7 20 29 106 283 477 1940 2620
2021-01-15 15:30 5.81 92 11600 (1937) 1 (1954) 591 4 7 20 29 106 283 477 1940 2620
2021-01-15 15:00 5.83 96 11600 (1937) 1 (1954) 591 4 7 20 29 106 283 477 1940 2620
2021-01-15 14:30 5.83 96 11600 (1937) 1 (1954) 591 4 7 20 29 106 283 477 1940 2620
2021-01-15 14:00 5.81 92 11600 (1937) 1 (1954) 591 4 7 20 29 106 283 477 1940 2620
2021-01-15 13:30 5.81 92 11600 (1937) 1 (1954) 591 4 7 20 29 106 283 477 1940 2620
2021-01-15 13:00 5.81 92 11600 (1937) 1 (1954) 591 4 7 20 29 106 283 477 1940 2620
2021-01-15 12:30 5.83 96 11600 (1937) 1 (1954) 591 4 7 20 29 106 283 477 1940 2620
2021-01-15 12:00 5.81 92 11600 (1937) 1 (1954) 591 4 7 20 29 106 283 477 1940 2620
2021-01-15 11:30 5.81 92 11600 (1937) 1 (1954) 591 4 7 20 29 106 283 477 1940 2620
2021-01-15 11:00 5.82 94 11600 (1937) 1 (1954) 591 4 7 20 29 106 283 477 1940 2620
2021-01-15 10:30 5.80 91 11600 (1937) 1 (1954) 591 4 7 20 29 106 283 477 1940 2620
2021-01-15 10:00 5.80 91 11600 (1937) 1 (1954) 591 4 7 20 29 106 283 477 1940 2620
2021-01-15 09:30 5.81 92 11600 (1937) 1 (1954) 591 4 7 20 29 106 283 477 1940 2620
2021-01-15 09:00 5.81 92 11600 (1937) 1 (1954) 591 4 7 20 29 106 283 477 1940 2620
2021-01-15 08:30 5.82 94 11600 (1937) 1 (1954) 591 4 7 20 29 106 283 477 1940 2620
2021-01-15 08:00 5.81 92 11600 (1937) 1 (1954) 591 4 7 20 29 106 283 477 1940 2620
2021-01-15 07:30 5.80 91 11600 (1937) 1 (1954) 591 4 7 20 29 106 283 477 1940 2620
2021-01-15 07:00 5.82 94 11600 (1937) 1 (1954) 591 4 7 20 29 106 283 477 1940 2620
2021-01-15 06:30 5.80 91 11600 (1937) 1 (1954) 591 4 7 20 29 106 283 477 1940 2620
2021-01-15 06:00 5.81 92 11600 (1937) 1 (1954) 591 4 7 20 29 106 283 477 1940 2620
2021-01-15 05:30 5.80 91 11600 (1937) 1 (1954) 591 4 7 20 29 106 283 477 1940 2620
2021-01-15 05:00 5.80 91 11600 (1937) 1 (1954) 591 4 7 20 29 106 283 477 1940 2620
2021-01-15 04:30 5.81 92 11600 (1937) 1 (1954) 591 4 7 20 29 106 283 477 1940 2620
2021-01-15 04:00 5.80 91 11600 (1937) 1 (1954) 591 4 7 20 29 106 283 477 1940 2620
2021-01-15 03:30 5.81 92 11600 (1937) 1 (1954) 591 4 7 20 29 106 283 477 1940 2620
2021-01-15 03:00 5.81 92 11600 (1937) 1 (1954) 591 4 7 20 29 106 283 477 1940 2620
2021-01-15 02:30 5.81 92 11600 (1937) 1 (1954) 591 4 7 20 29 106 283 477 1940 2620
2021-01-15 02:00 5.85 99 11600 (1937) 1 (1954) 591 4 7 20 29 106 283 477 1940 2620
2021-01-15 01:30 5.88 105 11600 (1937) 1 (1954) 591 4 7 20 29 106 283 477 1940 2620
2021-01-15 01:00 5.82 94 11600 (1937) 1 (1954) 591 4 7 20 29 106 283 477 1940 2620
2021-01-15 00:30 5.80 91 11600 (1937) 1 (1954) 591 4 7 20 29 106 283 477 1940 2620
2021-01-15 00:00 5.81 92 11600 (1937) 1 (1954) 591 4 7 20 29 106 283 477 1940 2620
2021-01-14 23:30 5.84 98 24200 (1995) 1 (1954) 871 4 7 19 30 92 228 303 869 7790
2021-01-14 23:00 5.79 89 24200 (1995) 1 (1954) 871 4 7 19 30 92 228 303 869 7790
2021-01-14 22:30 5.82 94 24200 (1995) 1 (1954) 871 4 7 19 30 92 228 303 869 7790
2021-01-14 22:00 5.80 91 24200 (1995) 1 (1954) 871 4 7 19 30 92 228 303 869 7790
2021-01-14 21:30 5.80 91 24200 (1995) 1 (1954) 871 4 7 19 30 92 228 303 869 7790
2021-01-14 21:00 5.82 94 24200 (1995) 1 (1954) 871 4 7 19 30 92 228 303 869 7790
2021-01-14 20:30 5.81 92 24200 (1995) 1 (1954) 871 4 7 19 30 92 228 303 869 7790
2021-01-14 20:00 5.82 94 24200 (1995) 1 (1954) 871 4 7 19 30 92 228 303 869 7790
2021-01-14 19:30 5.83 96 24200 (1995) 1 (1954) 871 4 7 19 30 92 228 303 869 7790
2021-01-14 19:00 5.84 98 24200 (1995) 1 (1954) 871 4 7 19 30 92 228 303 869 7790
2021-01-14 18:30 5.82 94 24200 (1995) 1 (1954) 871 4 7 19 30 92 228 303 869 7790
2021-01-14 18:00 5.88 105 24200 (1995) 1 (1954) 871 4 7 19 30 92 228 303 869 7790
2021-01-14 17:30 5.89 107 24200 (1995) 1 (1954) 871 4 7 19 30 92 228 303 869 7790
2021-01-14 17:00 5.81 92 24200 (1995) 1 (1954) 871 4 7 19 30 92 228 303 869 7790
2021-01-14 16:30 5.84 98 24200 (1995) 1 (1954) 871 4 7 19 30 92 228 303 869 7790
2021-01-14 16:00 5.81 92 24200 (1995) 1 (1954) 871 4 7 19 30 92 228 303 869 7790
2021-01-14 15:30 5.83 96 24200 (1995) 1 (1954) 871 4 7 19 30 92 228 303 869 7790
2021-01-14 15:00 5.82 94 24200 (1995) 1 (1954) 871 4 7 19 30 92 228 303 869 7790
2021-01-14 14:30 5.80 91 24200 (1995) 1 (1954) 871 4 7 19 30 92 228 303 869 7790
2021-01-14 14:00 5.81 92 24200 (1995) 1 (1954) 871 4 7 19 30 92 228 303 869 7790
2021-01-14 13:30 5.80 91 24200 (1995) 1 (1954) 871 4 7 19 30 92 228 303 869 7790
2021-01-14 13:00 5.81 92 24200 (1995) 1 (1954) 871 4 7 19 30 92 228 303 869 7790
2021-01-14 12:30 5.81 92 24200 (1995) 1 (1954) 871 4 7 19 30 92 228 303 869 7790
2021-01-14 12:00 5.80 91 24200 (1995) 1 (1954) 871 4 7 19 30 92 228 303 869 7790
2021-01-14 11:30 5.83 96 24200 (1995) 1 (1954) 871 4 7 19 30 92 228 303 869 7790
2021-01-14 11:00 5.81 92 24200 (1995) 1 (1954) 871 4 7 19 30 92 228 303 869 7790
2021-01-14 10:30 5.89 107 24200 (1995) 1 (1954) 871 4 7 19 30 92 228 303 869 7790
2021-01-14 10:00 5.89 107 24200 (1995) 1 (1954) 871 4 7 19 30 92 228 303 869 7790
2021-01-14 09:30 5.89 107 24200 (1995) 1 (1954) 871 4 7 19 30 92 228 303 869 7790
2021-01-14 09:00 5.89 107 24200 (1995) 1 (1954) 871 4 7 19 30 92 228 303 869 7790
2021-01-14 08:30 5.89 107 24200 (1995) 1 (1954) 871 4 7 19 30 92 228 303 869 7790
2021-01-14 08:00 5.89 107 24200 (1995) 1 (1954) 871 4 7 19 30 92 228 303 869 7790
2021-01-14 07:30 5.90 109 24200 (1995) 1 (1954) 871 4 7 19 30 92 228 303 869 7790
2021-01-14 07:00 5.90 109 24200 (1995) 1 (1954) 871 4 7 19 30 92 228 303 869 7790
2021-01-14 06:30 5.90 109 24200 (1995) 1 (1954) 871 4 7 19 30 92 228 303 869 7790
2021-01-14 06:00 5.90 109 24200 (1995) 1 (1954) 871 4 7 19 30 92 228 303 869 7790
2021-01-14 05:30 5.90 109 24200 (1995) 1 (1954) 871 4 7 19 30 92 228 303 869 7790
2021-01-14 05:00 5.90 109 24200 (1995) 1 (1954) 871 4 7 19 30 92 228 303 869 7790
2021-01-14 04:30 5.90 109 24200 (1995) 1 (1954) 871 4 7 19 30 92 228 303 869 7790
2021-01-14 04:00 5.90 109 24200 (1995) 1 (1954) 871 4 7 19 30 92 228 303 869 7790
2021-01-14 03:30 5.90 109 24200 (1995) 1 (1954) 871 4 7 19 30 92 228 303 869 7790
2021-01-14 03:00 5.90 109 24200 (1995) 1 (1954) 871 4 7 19 30 92 228 303 869 7790
2021-01-14 02:30 5.91 111 24200 (1995) 1 (1954) 871 4 7 19 30 92 228 303 869 7790
2021-01-14 02:00 5.90 109 24200 (1995) 1 (1954) 871 4 7 19 30 92 228 303 869 7790
2021-01-14 01:30 5.90 109 24200 (1995) 1 (1954) 871 4 7 19 30 92 228 303 869 7790
2021-01-14 01:00 5.91 111 24200 (1995) 1 (1954) 871 4 7 19 30 92 228 303 869 7790
2021-01-14 00:30 5.91 111 24200 (1995) 1 (1954) 871 4 7 19 30 92 228 303 869 7790
2021-01-14 00:00 5.91 111 24200 (1995) 1 (1954) 871 4 7 19 30 92 228 303 869 7790
2021-01-13 23:30 5.91 111 22700 (2005) 1 (1954) 590 4 8 18 29 77 246 322 1000 2300
2021-01-13 23:00 5.91 111 22700 (2005) 1 (1954) 590 4 8 18 29 77 246 322 1000 2300
2021-01-13 22:30 5.91 111 22700 (2005) 1 (1954) 590 4 8 18 29 77 246 322 1000 2300
2021-01-13 22:00 5.91 111 22700 (2005) 1 (1954) 590 4 8 18 29 77 246 322 1000 2300
2021-01-13 21:30 5.91 111 22700 (2005) 1 (1954) 590 4 8 18 29 77 246 322 1000 2300
2021-01-13 21:00 5.91 111 22700 (2005) 1 (1954) 590 4 8 18 29 77 246 322 1000 2300
2021-01-13 20:30 5.91 111 22700 (2005) 1 (1954) 590 4 8 18 29 77 246 322 1000 2300
2021-01-13 20:00 5.91 111 22700 (2005) 1 (1954) 590 4 8 18 29 77 246 322 1000 2300
2021-01-13 19:30 5.91 111 22700 (2005) 1 (1954) 590 4 8 18 29 77 246 322 1000 2300
2021-01-13 19:00 5.91 111 22700 (2005) 1 (1954) 590 4 8 18 29 77 246 322 1000 2300
2021-01-13 18:30 5.91 111 22700 (2005) 1 (1954) 590 4 8 18 29 77 246 322 1000 2300
2021-01-13 18:00 5.91 111 22700 (2005) 1 (1954) 590 4 8 18 29 77 246 322 1000 2300
2021-01-13 17:30 5.91 111 22700 (2005) 1 (1954) 590 4 8 18 29 77 246 322 1000 2300
2021-01-13 17:00 5.91 111 22700 (2005) 1 (1954) 590 4 8 18 29 77 246 322 1000 2300
2021-01-13 16:30 5.91 111 22700 (2005) 1 (1954) 590 4 8 18 29 77 246 322 1000 2300
2021-01-13 16:00 5.92 113 22700 (2005) 1 (1954) 590 4 8 18 29 77 246 322 1000 2300
2021-01-13 15:30 5.92 113 22700 (2005) 1 (1954) 590 4 8 18 29 77 246 322 1000 2300
2021-01-13 15:00 5.91 111 22700 (2005) 1 (1954) 590 4 8 18 29 77 246 322 1000 2300
2021-01-13 14:30 5.92 113 22700 (2005) 1 (1954) 590 4 8 18 29 77 246 322 1000 2300
2021-01-13 14:00 5.91 111 22700 (2005) 1 (1954) 590 4 8 18 29 77 246 322 1000 2300
2021-01-13 13:30 5.88 105 22700 (2005) 1 (1954) 590 4 8 18 29 77 246 322 1000 2300
2021-01-13 13:00 5.86 101 22700 (2005) 1 (1954) 590 4 8 18 29 77 246 322 1000 2300
2021-01-13 12:30 5.86 101 22700 (2005) 1 (1954) 590 4 8 18 29 77 246 322 1000 2300
2021-01-13 12:00 5.87 103 22700 (2005) 1 (1954) 590 4 8 18 29 77 246 322 1000 2300
2021-01-13 11:30 5.86 101 22700 (2005) 1 (1954) 590 4 8 18 29 77 246 322 1000 2300
2021-01-13 11:00 5.86 101 22700 (2005) 1 (1954) 590 4 8 18 29 77 246 322 1000 2300
2021-01-13 10:30 5.81 92 22700 (2005) 1 (1954) 590 4 8 18 29 77 246 322 1000 2300
2021-01-13 10:00 5.87 103 22700 (2005) 1 (1954) 590 4 8 18 29 77 246 322 1000 2300
2021-01-13 09:30 5.87 103 22700 (2005) 1 (1954) 590 4 8 18 29 77 246 322 1000 2300
2021-01-13 09:00 5.93 115 22700 (2005) 1 (1954) 590 4 8 18 29 77 246 322 1000 2300
2021-01-13 08:30 5.93 115 22700 (2005) 1 (1954) 590 4 8 18 29 77 246 322 1000 2300
2021-01-13 08:00 5.93 115 22700 (2005) 1 (1954) 590 4 8 18 29 77 246 322 1000 2300
2021-01-13 07:30 5.94 117 22700 (2005) 1 (1954) 590 4 8 18 29 77 246 322 1000 2300
2021-01-13 07:00 5.94 117 22700 (2005) 1 (1954) 590 4 8 18 29 77 246 322 1000 2300
2021-01-13 06:30 5.94 117 22700 (2005) 1 (1954) 590 4 8 18 29 77 246 322 1000 2300
2021-01-13 06:00 5.94 117 22700 (2005) 1 (1954) 590 4 8 18 29 77 246 322 1000 2300
2021-01-13 05:30 5.94 117 22700 (2005) 1 (1954) 590 4 8 18 29 77 246 322 1000 2300
2021-01-13 05:00 5.94 117 22700 (2005) 1 (1954) 590 4 8 18 29 77 246 322 1000 2300
2021-01-13 04:30 5.94 117 22700 (2005) 1 (1954) 590 4 8 18 29 77 246 322 1000 2300
2021-01-13 04:00 5.94 117 22700 (2005) 1 (1954) 590 4 8 18 29 77 246 322 1000 2300
2021-01-13 03:30 5.94 117 22700 (2005) 1 (1954) 590 4 8 18 29 77 246 322 1000 2300
2021-01-13 03:00 5.95 119 22700 (2005) 1 (1954) 590 4 8 18 29 77 246 322 1000 2300
2021-01-13 02:30 5.95 119 22700 (2005) 1 (1954) 590 4 8 18 29 77 246 322 1000 2300
2021-01-13 02:00 5.95 119 22700 (2005) 1 (1954) 590 4 8 18 29 77 246 322 1000 2300
2021-01-13 01:30 5.95 119 22700 (2005) 1 (1954) 590 4 8 18 29 77 246 322 1000 2300
2021-01-13 01:00 5.95 119 22700 (2005) 1 (1954) 590 4 8 18 29 77 246 322 1000 2300
2021-01-13 00:30 5.95 119 22700 (2005) 1 (1954) 590 4 8 18 29 77 246 322 1000 2300
2021-01-13 00:00 5.96 121 22700 (2005) 1 (1954) 590 4 8 18 29 77 246 322 1000 2300
2021-01-12 23:30 5.96 121 11400 (2020) 1 (1954) 389 5 8 18 30 80 285 356 689 1510
2021-01-12 23:00 5.96 121 11400 (2020) 1 (1954) 389 5 8 18 30 80 285 356 689 1510
2021-01-12 22:30 5.96 121 11400 (2020) 1 (1954) 389 5 8 18 30 80 285 356 689 1510
2021-01-12 22:00 5.96 121 11400 (2020) 1 (1954) 389 5 8 18 30 80 285 356 689 1510
2021-01-12 21:30 5.96 121 11400 (2020) 1 (1954) 389 5 8 18 30 80 285 356 689 1510
2021-01-12 21:00 5.96 121 11400 (2020) 1 (1954) 389 5 8 18 30 80 285 356 689 1510
2021-01-12 20:30 5.97 123 11400 (2020) 1 (1954) 389 5 8 18 30 80 285 356 689 1510
2021-01-12 20:00 5.97 123 11400 (2020) 1 (1954) 389 5 8 18 30 80 285 356 689 1510
2021-01-12 19:30 5.97 123 11400 (2020) 1 (1954) 389 5 8 18 30 80 285 356 689 1510
2021-01-12 19:00 5.97 123 11400 (2020) 1 (1954) 389 5 8 18 30 80 285 356 689 1510
2021-01-12 18:30 5.97 123 11400 (2020) 1 (1954) 389 5 8 18 30 80 285 356 689 1510
2021-01-12 18:00 5.97 123 11400 (2020) 1 (1954) 389 5 8 18 30 80 285 356 689 1510
2021-01-12 17:30 5.97 123 11400 (2020) 1 (1954) 389 5 8 18 30 80 285 356 689 1510
2021-01-12 17:00 5.98 125 11400 (2020) 1 (1954) 389 5 8 18 30 80 285 356 689 1510
2021-01-12 16:30 5.97 123 11400 (2020) 1 (1954) 389 5 8 18 30 80 285 356 689 1510
2021-01-12 16:00 5.93 115 11400 (2020) 1 (1954) 389 5 8 18 30 80 285 356 689 1510
2021-01-12 15:30 5.92 113 11400 (2020) 1 (1954) 389 5 8 18 30 80 285 356 689 1510
2021-01-12 15:00 5.94 117 11400 (2020) 1 (1954) 389 5 8 18 30 80 285 356 689 1510
2021-01-12 14:30 5.91 111 11400 (2020) 1 (1954) 389 5 8 18 30 80 285 356 689 1510
2021-01-12 14:00 5.91 111 11400 (2020) 1 (1954) 389 5 8 18 30 80 285 356 689 1510
2021-01-12 13:30 5.98 125 11400 (2020) 1 (1954) 389 5 8 18 30 80 285 356 689 1510
2021-01-12 13:00 5.96 121 11400 (2020) 1 (1954) 389 5 8 18 30 80 285 356 689 1510
2021-01-12 12:30 5.94 117 11400 (2020) 1 (1954) 389 5 8 18 30 80 285 356 689 1510
2021-01-12 12:00 5.94 117 11400 (2020) 1 (1954) 389 5 8 18 30 80 285 356 689 1510
2021-01-12 11:30 5.99 127 11400 (2020) 1 (1954) 389 5 8 18 30 80 285 356 689 1510
2021-01-12 11:00 5.93 115 11400 (2020) 1 (1954) 389 5 8 18 30 80 285 356 689 1510
2021-01-12 10:30 5.95 119 11400 (2020) 1 (1954) 389 5 8 18 30 80 285 356 689 1510
2021-01-12 10:00 5.95 119 11400 (2020) 1 (1954) 389 5 8 18 30 80 285 356 689 1510
2021-01-12 09:30 6.00 129 11400 (2020) 1 (1954) 389 5 8 18 30 80 285 356 689 1510
2021-01-12 09:00 6.00 129 11400 (2020) 1 (1954) 389 5 8 18 30 80 285 356 689 1510
2021-01-12 08:30 6.01 132 11400 (2020) 1 (1954) 389 5 8 18 30 80 285 356 689 1510
2021-01-12 08:00 6.01 132 11400 (2020) 1 (1954) 389 5 8 18 30 80 285 356 689 1510
2021-01-12 07:30 6.01 132 11400 (2020) 1 (1954) 389 5 8 18 30 80 285 356 689 1510
2021-01-12 07:00 6.01 132 11400 (2020) 1 (1954) 389 5 8 18 30 80 285 356 689 1510
2021-01-12 06:30 6.01 132 11400 (2020) 1 (1954) 389 5 8 18 30 80 285 356 689 1510
2021-01-12 06:00 6.01 132 11400 (2020) 1 (1954) 389 5 8 18 30 80 285 356 689 1510
2021-01-12 05:30 6.01 132 11400 (2020) 1 (1954) 389 5 8 18 30 80 285 356 689 1510
2021-01-12 05:00 6.02 134 11400 (2020) 1 (1954) 389 5 8 18 30 80 285 356 689 1510
2021-01-12 04:30 6.02 134 11400 (2020) 1 (1954) 389 5 8 18 30 80 285 356 689 1510
2021-01-12 04:00 6.02 134 11400 (2020) 1 (1954) 389 5 8 18 30 80 285 356 689 1510
2021-01-12 03:30 6.02 134 11400 (2020) 1 (1954) 389 5 8 18 30 80 285 356 689 1510
2021-01-12 03:00 6.03 136 11400 (2020) 1 (1954) 389 5 8 18 30 80 285 356 689 1510
2021-01-12 02:30 6.03 136 11400 (2020) 1 (1954) 389 5 8 18 30 80 285 356 689 1510
2021-01-12 02:00 6.03 136 11400 (2020) 1 (1954) 389 5 8 18 30 80 285 356 689 1510
2021-01-12 01:30 6.03 136 11400 (2020) 1 (1954) 389 5 8 18 30 80 285 356 689 1510
2021-01-12 01:00 6.03 11400 (2020) 1 (1954) 389 5 8 18 30 80 285 356 689 1510
2021-01-12 00:30 6.03 136 11400 (2020) 1 (1954) 389 5 8 18 30 80 285 356 689 1510
2021-01-12 00:00 6.03 136 11400 (2020) 1 (1954) 389 5 8 18 30 80 285 356 689 1510
2021-01-11 23:30 6.03 136 32700 (2020) 1 (1954) 675 6 9 17 31 80 303 400 778 1490
2021-01-11 23:00 6.04 138 32700 (2020) 1 (1954) 675 6 9 17 31 80 303 400 778 1490
2021-01-11 22:30 6.04 138 32700 (2020) 1 (1954) 675 6 9 17 31 80 303 400 778 1490
2021-01-11 22:00 6.04 138 32700 (2020) 1 (1954) 675 6 9 17 31 80 303 400 778 1490
2021-01-11 21:30 6.04 138 32700 (2020) 1 (1954) 675 6 9 17 31 80 303 400 778 1490
2021-01-11 21:00 6.04 138 32700 (2020) 1 (1954) 675 6 9 17 31 80 303 400 778 1490
2021-01-11 20:30 6.04 138 32700 (2020) 1 (1954) 675 6 9 17 31 80 303 400 778 1490
2021-01-11 20:00 6.04 138 32700 (2020) 1 (1954) 675 6 9 17 31 80 303 400 778 1490
2021-01-11 19:30 6.05 141 32700 (2020) 1 (1954) 675 6 9 17 31 80 303 400 778 1490
2021-01-11 19:00 6.04 138 32700 (2020) 1 (1954) 675 6 9 17 31 80 303 400 778 1490
2021-01-11 18:30 6.05 141 32700 (2020) 1 (1954) 675 6 9 17 31 80 303 400 778 1490
2021-01-11 18:00 6.05 141 32700 (2020) 1 (1954) 675 6 9 17 31 80 303 400 778 1490
2021-01-11 17:30 6.05 141 32700 (2020) 1 (1954) 675 6 9 17 31 80 303 400 778 1490
2021-01-11 17:00 6.05 141 32700 (2020) 1 (1954) 675 6 9 17 31 80 303 400 778 1490
2021-01-11 16:30 6.06 143 32700 (2020) 1 (1954) 675 6 9 17 31 80 303 400 778 1490
2021-01-11 16:00 6.06 143 32700 (2020) 1 (1954) 675 6 9 17 31 80 303 400 778 1490
2021-01-11 15:30 6.06 143 32700 (2020) 1 (1954) 675 6 9 17 31 80 303 400 778 1490
2021-01-11 15:00 6.06 143 32700 (2020) 1 (1954) 675 6 9 17 31 80 303 400 778 1490
2021-01-11 14:30 6.06 143 32700 (2020) 1 (1954) 675 6 9 17 31 80 303 400 778 1490
2021-01-11 14:00 6.06 143 32700 (2020) 1 (1954) 675 6 9 17 31 80 303 400 778 1490
2021-01-11 13:30 6.03 136 32700 (2020) 1 (1954) 675 6 9 17 31 80 303 400 778 1490
2021-01-11 13:00 6.07 146 32700 (2020) 1 (1954) 675 6 9 17 31 80 303 400 778 1490
2021-01-11 12:30 6.06 143 32700 (2020) 1 (1954) 675 6 9 17 31 80 303 400 778 1490
2021-01-11 12:00 6.01 132 32700 (2020) 1 (1954) 675 6 9 17 31 80 303 400 778 1490
2021-01-11 11:30 6.07 146 32700 (2020) 1 (1954) 675 6 9 17 31 80 303 400 778 1490
2021-01-11 11:00 6.08 148 32700 (2020) 1 (1954) 675 6 9 17 31 80 303 400 778 1490
2021-01-11 10:30 6.01 132 32700 (2020) 1 (1954) 675 6 9 17 31 80 303 400 778 1490
2021-01-11 10:00 6.01 132 32700 (2020) 1 (1954) 675 6 9 17 31 80 303 400 778 1490
2021-01-11 09:30 6.08 148 32700 (2020) 1 (1954) 675 6 9 17 31 80 303 400 778 1490
2021-01-11 09:00 6.09 150 32700 (2020) 1 (1954) 675 6 9 17 31 80 303 400 778 1490
2021-01-11 08:30 6.08 148 32700 (2020) 1 (1954) 675 6 9 17 31 80 303 400 778 1490
2021-01-11 08:00 6.09 150 32700 (2020) 1 (1954) 675 6 9 17 31 80 303 400 778 1490
2021-01-11 07:30 6.09 150 32700 (2020) 1 (1954) 675 6 9 17 31 80 303 400 778 1490
2021-01-11 07:00 6.09 150 32700 (2020) 1 (1954) 675 6 9 17 31 80 303 400 778 1490
2021-01-11 06:30 6.09 150 32700 (2020) 1 (1954) 675 6 9 17 31 80 303 400 778 1490
2021-01-11 06:00 6.10 153 32700 (2020) 1 (1954) 675 6 9 17 31 80 303 400 778 1490
2021-01-11 05:30 6.10 153 32700 (2020) 1 (1954) 675 6 9 17 31 80 303 400 778 1490
2021-01-11 05:00 6.10 153 32700 (2020) 1 (1954) 675 6 9 17 31 80 303 400 778 1490
2021-01-11 04:30 6.10 153 32700 (2020) 1 (1954) 675 6 9 17 31 80 303 400 778 1490
2021-01-11 04:00 6.10 153 32700 (2020) 1 (1954) 675 6 9 17 31 80 303 400 778 1490
2021-01-11 03:30 6.11 155 32700 (2020) 1 (1954) 675 6 9 17 31 80 303 400 778 1490
2021-01-11 03:00 6.11 155 32700 (2020) 1 (1954) 675 6 9 17 31 80 303 400 778 1490
2021-01-11 02:30 6.11 155 32700 (2020) 1 (1954) 675 6 9 17 31 80 303 400 778 1490
2021-01-11 02:00 6.11 155 32700 (2020) 1 (1954) 675 6 9 17 31 80 303 400 778 1490
2021-01-11 01:30 6.12 158 32700 (2020) 1 (1954) 675 6 9 17 31 80 303 400 778 1490
2021-01-11 01:00 6.12 158 32700 (2020) 1 (1954) 675 6 9 17 31 80 303 400 778 1490
2021-01-11 00:30 6.12 158 32700 (2020) 1 (1954) 675 6 9 17 31 80 303 400 778 1490
2021-01-11 00:00 6.12 158 32700 (2020) 1 (1954) 675 6 9 17 31 80 303 400 778 1490
2021-01-10 23:30 6.12 158 8800 (1946) 1 (1954) 372 5 9 17 24 85 300 364 1040 1700
2021-01-10 23:00 6.13 160 8800 (1946) 1 (1954) 372 5 9 17 24 85 300 364 1040 1700
2021-01-10 22:30 6.12 158 8800 (1946) 1 (1954) 372 5 9 17 24 85 300 364 1040 1700
2021-01-10 22:00 6.13 160 8800 (1946) 1 (1954) 372 5 9 17 24 85 300 364 1040 1700
2021-01-10 21:30 6.12 158 8800 (1946) 1 (1954) 372 5 9 17 24 85 300 364 1040 1700
2021-01-10 21:00 6.13 160 8800 (1946) 1 (1954) 372 5 9 17 24 85 300 364 1040 1700
2021-01-10 20:30 6.13 160 8800 (1946) 1 (1954) 372 5 9 17 24 85 300 364 1040 1700
2021-01-10 20:00 6.10 153 8800 (1946) 1 (1954) 372 5 9 17 24 85 300 364 1040 1700
2021-01-10 19:30 6.14 163 8800 (1946) 1 (1954) 372 5 9 17 24 85 300 364 1040 1700
2021-01-10 19:00 6.14 163 8800 (1946) 1 (1954) 372 5 9 17 24 85 300 364 1040 1700
2021-01-10 18:30 6.14 163 8800 (1946) 1 (1954) 372 5 9 17 24 85 300 364 1040 1700
2021-01-10 18:00 6.15 166 8800 (1946) 1 (1954) 372 5 9 17 24 85 300 364 1040 1700
2021-01-10 17:30 6.15 166 8800 (1946) 1 (1954) 372 5 9 17 24 85 300 364 1040 1700
2021-01-10 17:00 6.14 163 8800 (1946) 1 (1954) 372 5 9 17 24 85 300 364 1040 1700
2021-01-10 16:30 6.15 166 8800 (1946) 1 (1954) 372 5 9 17 24 85 300 364 1040 1700
2021-01-10 16:00 6.14 163 8800 (1946) 1 (1954) 372 5 9 17 24 85 300 364 1040 1700
2021-01-10 15:30 6.15 166 8800 (1946) 1 (1954) 372 5 9 17 24 85 300 364 1040 1700
2021-01-10 15:00 6.16 168 8800 (1946) 1 (1954) 372 5 9 17 24 85 300 364 1040 1700
2021-01-10 14:30 6.13 160 8800 (1946) 1 (1954) 372 5 9 17 24 85 300 364 1040 1700
2021-01-10 14:00 6.10 153 8800 (1946) 1 (1954) 372 5 9 17 24 85 300 364 1040 1700
2021-01-10 13:30 6.10 153 8800 (1946) 1 (1954) 372 5 9 17 24 85 300 364 1040 1700
2021-01-10 13:00 6.17 171 8800 (1946) 1 (1954) 372 5 9 17 24 85 300 364 1040 1700
2021-01-10 12:30 6.17 171 8800 (1946) 1 (1954) 372 5 9 17 24 85 300 364 1040 1700
2021-01-10 12:00 6.18 174 8800 (1946) 1 (1954) 372 5 9 17 24 85 300 364 1040 1700
2021-01-10 11:30 6.18 174 8800 (1946) 1 (1954) 372 5 9 17 24 85 300 364 1040 1700
2021-01-10 11:00 6.18 174 8800 (1946) 1 (1954) 372 5 9 17 24 85 300 364 1040 1700
2021-01-10 10:30 6.19 176 8800 (1946) 1 (1954) 372 5 9 17 24 85 300 364 1040 1700
2021-01-10 10:00 6.19 176 8800 (1946) 1 (1954) 372 5 9 17 24 85 300 364 1040 1700
2021-01-10 09:30 6.19 176 8800 (1946) 1 (1954) 372 5 9 17 24 85 300 364 1040 1700
2021-01-10 09:00 6.19 176 8800 (1946) 1 (1954) 372 5 9 17 24 85 300 364 1040 1700
2021-01-10 08:30 6.20 179 8800 (1946) 1 (1954) 372 5 9 17 24 85 300 364 1040 1700
2021-01-10 08:00 6.20 179 8800 (1946) 1 (1954) 372 5 9 17 24 85 300 364 1040 1700
2021-01-10 07:30 6.20 179 8800 (1946) 1 (1954) 372 5 9 17 24 85 300 364 1040 1700
2021-01-10 07:00 6.21 182 8800 (1946) 1 (1954) 372 5 9 17 24 85 300 364 1040 1700
2021-01-10 06:30 6.21 182 8800 (1946) 1 (1954) 372 5 9 17 24 85 300 364 1040 1700
2021-01-10 06:00 6.21 182 8800 (1946) 1 (1954) 372 5 9 17 24 85 300 364 1040 1700
2021-01-10 05:30 6.21 182 8800 (1946) 1 (1954) 372 5 9 17 24 85 300 364 1040 1700
2021-01-10 05:00 6.22 185 8800 (1946) 1 (1954) 372 5 9 17 24 85 300 364 1040 1700
2021-01-10 04:30 6.22 185 8800 (1946) 1 (1954) 372 5 9 17 24 85 300 364 1040 1700
2021-01-10 04:00 6.22 185 8800 (1946) 1 (1954) 372 5 9 17 24 85 300 364 1040 1700
2021-01-10 03:30 6.22 185 8800 (1946) 1 (1954) 372 5 9 17 24 85 300 364 1040 1700
2021-01-10 03:00 6.23 188 8800 (1946) 1 (1954) 372 5 9 17 24 85 300 364 1040 1700
2021-01-10 02:30 6.23 188 8800 (1946) 1 (1954) 372 5 9 17 24 85 300 364 1040 1700
2021-01-10 02:00 6.23 188 8800 (1946) 1 (1954) 372 5 9 17 24 85 300 364 1040 1700
2021-01-10 01:00 6.24 191 8800 (1946) 1 (1954) 372 5 9 17 24 85 300 364 1040 1700
2021-01-10 00:00 191 8800 (1946) 1 (1954) 372 5 9 17 24 85 300 364 1040 1700
2021-01-09 23:30 6.25 194 12800 (1946) 1 (1954) 553 6 9 16 23 81 310 368 861 3930
2021-01-09 23:00 6.25 194 12800 (1946) 1 (1954) 553 6 9 16 23 81 310 368 861 3930
2021-01-09 21:00 6.26 197 12800 (1946) 1 (1954) 553 6 9 16 23 81 310 368 861 3930
2021-01-09 20:30 6.27 200 12800 (1946) 1 (1954) 553 6 9 16 23 81 310 368 861 3930
2021-01-09 20:00 6.27 200 12800 (1946) 1 (1954) 553 6 9 16 23 81 310 368 861 3930
2021-01-09 19:30 6.27 200 12800 (1946) 1 (1954) 553 6 9 16 23 81 310 368 861 3930
2021-01-09 19:00 6.28 203 12800 (1946) 1 (1954) 553 6 9 16 23 81 310 368 861 3930
2021-01-09 18:30 6.28 12800 (1946) 1 (1954) 553 6 9 16 23 81 310 368 861 3930
2021-01-09 18:00 6.28 203 12800 (1946) 1 (1954) 553 6 9 16 23 81 310 368 861 3930
2021-01-09 17:30 6.28 203 12800 (1946) 1 (1954) 553 6 9 16 23 81 310 368 861 3930
2021-01-09 17:00 6.28 203 12800 (1946) 1 (1954) 553 6 9 16 23 81 310 368 861 3930
2021-01-09 16:30 6.29 206 12800 (1946) 1 (1954) 553 6 9 16 23 81 310 368 861 3930
2021-01-09 16:00 6.29 206 12800 (1946) 1 (1954) 553 6 9 16 23 81 310 368 861 3930
2021-01-09 15:30 6.30 209 12800 (1946) 1 (1954) 553 6 9 16 23 81 310 368 861 3930
2021-01-09 15:00 6.30 209 12800 (1946) 1 (1954) 553 6 9 16 23 81 310 368 861 3930
2021-01-09 14:30 6.30 209 12800 (1946) 1 (1954) 553 6 9 16 23 81 310 368 861 3930
2021-01-09 14:00 6.31 212 12800 (1946) 1 (1954) 553 6 9 16 23 81 310 368 861 3930
2021-01-09 13:30 6.31 212 12800 (1946) 1 (1954) 553 6 9 16 23 81 310 368 861 3930
2021-01-09 13:00 6.31 212 12800 (1946) 1 (1954) 553 6 9 16 23 81 310 368 861 3930
2021-01-09 12:30 6.31 212 12800 (1946) 1 (1954) 553 6 9 16 23 81 310 368 861 3930
2021-01-09 12:00 6.32 215 12800 (1946) 1 (1954) 553 6 9 16 23 81 310 368 861 3930
2021-01-09 11:30 6.32 12800 (1946) 1 (1954) 553 6 9 16 23 81 310 368 861 3930
2021-01-09 11:00 6.32 215 12800 (1946) 1 (1954) 553 6 9 16 23 81 310 368 861 3930
2021-01-09 10:30 6.33 218 12800 (1946) 1 (1954) 553 6 9 16 23 81 310 368 861 3930
2021-01-09 10:00 6.33 218 12800 (1946) 1 (1954) 553 6 9 16 23 81 310 368 861 3930
2021-01-09 09:30 6.33 218 12800 (1946) 1 (1954) 553 6 9 16 23 81 310 368 861 3930
2021-01-09 09:00 6.34 222 12800 (1946) 1 (1954) 553 6 9 16 23 81 310 368 861 3930
2021-01-09 08:30 6.34 222 12800 (1946) 1 (1954) 553 6 9 16 23 81 310 368 861 3930
2021-01-09 08:00 6.34 222 12800 (1946) 1 (1954) 553 6 9 16 23 81 310 368 861 3930
2021-01-09 07:30 6.34 222 12800 (1946) 1 (1954) 553 6 9 16 23 81 310 368 861 3930
2021-01-09 07:00 6.35 225 12800 (1946) 1 (1954) 553 6 9 16 23 81 310 368 861 3930
2021-01-09 06:30 6.35 225 12800 (1946) 1 (1954) 553 6 9 16 23 81 310 368 861 3930
2021-01-09 06:00 6.35 225 12800 (1946) 1 (1954) 553 6 9 16 23 81 310 368 861 3930
2021-01-09 05:30 6.36 228 12800 (1946) 1 (1954) 553 6 9 16 23 81 310 368 861 3930
2021-01-09 05:00 6.36 228 12800 (1946) 1 (1954) 553 6 9 16 23 81 310 368 861 3930
2021-01-09 04:30 6.36 228 12800 (1946) 1 (1954) 553 6 9 16 23 81 310 368 861 3930
2021-01-09 04:00 6.36 228 12800 (1946) 1 (1954) 553 6 9 16 23 81 310 368 861 3930
2021-01-09 03:30 6.36 228 12800 (1946) 1 (1954) 553 6 9 16 23 81 310 368 861 3930
2021-01-09 03:00 6.37 232 12800 (1946) 1 (1954) 553 6 9 16 23 81 310 368 861 3930
2021-01-09 02:30 6.37 232 12800 (1946) 1 (1954) 553 6 9 16 23 81 310 368 861 3930
2021-01-09 02:00 6.37 232 12800 (1946) 1 (1954) 553 6 9 16 23 81 310 368 861 3930
2021-01-09 01:30 6.37 232 12800 (1946) 1 (1954) 553 6 9 16 23 81 310 368 861 3930
2021-01-09 01:00 6.38 235 12800 (1946) 1 (1954) 553 6 9 16 23 81 310 368 861 3930
2021-01-09 00:30 6.38 235 12800 (1946) 1 (1954) 553 6 9 16 23 81 310 368 861 3930
2021-01-09 00:00 6.38 235 12800 (1946) 1 (1954) 553 6 9 16 23 81 310 368 861 3930
2021-01-08 23:30 6.39 238 11400 (1937) 1 (1954) 602 6 9 16 25 85 328 416 805 4150
2021-01-08 23:00 6.39 238 11400 (1937) 1 (1954) 602 6 9 16 25 85 328 416 805 4150
2021-01-08 22:30 6.39 238 11400 (1937) 1 (1954) 602 6 9 16 25 85 328 416 805 4150
2021-01-08 22:00 6.39 238 11400 (1937) 1 (1954) 602 6 9 16 25 85 328 416 805 4150
2021-01-08 21:30 6.40 242 11400 (1937) 1 (1954) 602 6 9 16 25 85 328 416 805 4150
2021-01-08 21:00 6.40 242 11400 (1937) 1 (1954) 602 6 9 16 25 85 328 416 805 4150
2021-01-08 20:30 6.40 242 11400 (1937) 1 (1954) 602 6 9 16 25 85 328 416 805 4150
2021-01-08 20:00 6.40 242 11400 (1937) 1 (1954) 602 6 9 16 25 85 328 416 805 4150
2021-01-08 19:30 6.41 245 11400 (1937) 1 (1954) 602 6 9 16 25 85 328 416 805 4150
2021-01-08 19:00 6.41 245 11400 (1937) 1 (1954) 602 6 9 16 25 85 328 416 805 4150
2021-01-08 18:30 6.41 245 11400 (1937) 1 (1954) 602 6 9 16 25 85 328 416 805 4150
2021-01-08 18:00 6.42 249 11400 (1937) 1 (1954) 602 6 9 16 25 85 328 416 805 4150
2021-01-08 17:30 6.42 249 11400 (1937) 1 (1954) 602 6 9 16 25 85 328 416 805 4150
2021-01-08 17:00 6.42 249 11400 (1937) 1 (1954) 602 6 9 16 25 85 328 416 805 4150
2021-01-08 16:30 6.43 252 11400 (1937) 1 (1954) 602 6 9 16 25 85 328 416 805 4150
2021-01-08 16:00 6.41 245 11400 (1937) 1 (1954) 602 6 9 16 25 85 328 416 805 4150
2021-01-08 15:30 6.43 252 11400 (1937) 1 (1954) 602 6 9 16 25 85 328 416 805 4150
2021-01-08 15:00 6.44 256 11400 (1937) 1 (1954) 602 6 9 16 25 85 328 416 805 4150
2021-01-08 14:30 6.44 256 11400 (1937) 1 (1954) 602 6 9 16 25 85 328 416 805 4150
2021-01-08 14:00 6.44 256 11400 (1937) 1 (1954) 602 6 9 16 25 85 328 416 805 4150
2021-01-08 13:30 6.45 260 11400 (1937) 1 (1954) 602 6 9 16 25 85 328 416 805 4150
2021-01-08 13:00 6.45 260 11400 (1937) 1 (1954) 602 6 9 16 25 85 328 416 805 4150
2021-01-08 12:30 6.45 260 11400 (1937) 1 (1954) 602 6 9 16 25 85 328 416 805 4150
2021-01-08 12:00 6.44 256 11400 (1937) 1 (1954) 602 6 9 16 25 85 328 416 805 4150
2021-01-08 11:30 6.46 263 11400 (1937) 1 (1954) 602 6 9 16 25 85 328 416 805 4150
2021-01-08 11:00 6.44 256 11400 (1937) 1 (1954) 602 6 9 16 25 85 328 416 805 4150
2021-01-08 10:30 6.47 267 11400 (1937) 1 (1954) 602 6 9 16 25 85 328 416 805 4150
2021-01-08 10:00 6.47 267 11400 (1937) 1 (1954) 602 6 9 16 25 85 328 416 805 4150
2021-01-08 09:30 6.48 270 11400 (1937) 1 (1954) 602 6 9 16 25 85 328 416 805 4150
2021-01-08 09:00 6.48 270 11400 (1937) 1 (1954) 602 6 9 16 25 85 328 416 805 4150
2021-01-08 08:30 6.48 270 11400 (1937) 1 (1954) 602 6 9 16 25 85 328 416 805 4150
2021-01-08 08:00 6.49 273 11400 (1937) 1 (1954) 602 6 9 16 25 85 328 416 805 4150
2021-01-08 07:30 6.49 11400 (1937) 1 (1954) 602 6 9 16 25 85 328 416 805 4150
2021-01-08 07:00 6.49 11400 (1937) 1 (1954) 602 6 9 16 25 85 328 416 805 4150
2021-01-08 06:30 6.49 11400 (1937) 1 (1954) 602 6 9 16 25 85 328 416 805 4150
2021-01-08 06:00 6.50 11400 (1937) 1 (1954) 602 6 9 16 25 85 328 416 805 4150
2021-01-08 05:30 6.50 11400 (1937) 1 (1954) 602 6 9 16 25 85 328 416 805 4150
2021-01-08 05:00 6.50 11400 (1937) 1 (1954) 602 6 9 16 25 85 328 416 805 4150
2021-01-08 04:30 6.50 11400 (1937) 1 (1954) 602 6 9 16 25 85 328 416 805 4150
2021-01-08 04:00 6.51 11400 (1937) 1 (1954) 602 6 9 16 25 85 328 416 805 4150
2021-01-08 03:30 6.51 11400 (1937) 1 (1954) 602 6 9 16 25 85 328 416 805 4150
2021-01-08 03:00 6.51 11400 (1937) 1 (1954) 602 6 9 16 25 85 328 416 805 4150
2021-01-08 02:30 6.51 11400 (1937) 1 (1954) 602 6 9 16 25 85 328 416 805 4150
2021-01-08 02:00 6.50 11400 (1937) 1 (1954) 602 6 9 16 25 85 328 416 805 4150
2021-01-08 01:30 6.52 11400 (1937) 1 (1954) 602 6 9 16 25 85 328 416 805 4150
2021-01-08 01:00 6.52 11400 (1937) 1 (1954) 602 6 9 16 25 85 328 416 805 4150
2021-01-08 00:30 6.52 11400 (1937) 1 (1954) 602 6 9 16 25 85 328 416 805 4150
2021-01-08 00:00 6.53 11400 (1937) 1 (1954) 602 6 9 16 25 85 328 416 805 4150
2021-01-07 23:30 6.53 4680 (2005) 1 (1954) 332 5 8 15 20 88 337 407 1050 1640
2021-01-07 23:00 6.53 4680 (2005) 1 (1954) 332 5 8 15 20 88 337 407 1050 1640
2021-01-07 22:30 6.53 4680 (2005) 1 (1954) 332 5 8 15 20 88 337 407 1050 1640
2021-01-07 22:00 6.53 4680 (2005) 1 (1954) 332 5 8 15 20 88 337 407 1050 1640
2021-01-07 21:30 6.53 4680 (2005) 1 (1954) 332 5 8 15 20 88 337 407 1050 1640
2021-01-07 21:00 6.54 4680 (2005) 1 (1954) 332 5 8 15 20 88 337 407 1050 1640
2021-01-07 20:30 6.54 4680 (2005) 1 (1954) 332 5 8 15 20 88 337 407 1050 1640
2021-01-07 20:00 6.54 4680 (2005) 1 (1954) 332 5 8 15 20 88 337 407 1050 1640
2021-01-07 19:30 6.54 4680 (2005) 1 (1954) 332 5 8 15 20 88 337 407 1050 1640
2021-01-07 19:00 6.55 4680 (2005) 1 (1954) 332 5 8 15 20 88 337 407 1050 1640
2021-01-07 18:30 6.55 4680 (2005) 1 (1954) 332 5 8 15 20 88 337 407 1050 1640
2021-01-07 18:00 6.55 4680 (2005) 1 (1954) 332 5 8 15 20 88 337 407 1050 1640
2021-01-07 17:30 6.55 4680 (2005) 1 (1954) 332 5 8 15 20 88 337 407 1050 1640
2021-01-07 17:00 6.55 4680 (2005) 1 (1954) 332 5 8 15 20 88 337 407 1050 1640
2021-01-07 16:30 6.55 4680 (2005) 1 (1954) 332 5 8 15 20 88 337 407 1050 1640
2021-01-07 16:00 6.55 4680 (2005) 1 (1954) 332 5 8 15 20 88 337 407 1050 1640
2021-01-07 15:30 6.54 4680 (2005) 1 (1954) 332 5 8 15 20 88 337 407 1050 1640
2021-01-07 15:00 6.56 4680 (2005) 1 (1954) 332 5 8 15 20 88 337 407 1050 1640
2021-01-07 14:30 6.56 4680 (2005) 1 (1954) 332 5 8 15 20 88 337 407 1050 1640
2021-01-07 14:00 6.51 4680 (2005) 1 (1954) 332 5 8 15 20 88 337 407 1050 1640
2021-01-07 13:30 6.50 4680 (2005) 1 (1954) 332 5 8 15 20 88 337 407 1050 1640
2021-01-07 13:00 6.52 4680 (2005) 1 (1954) 332 5 8 15 20 88 337 407 1050 1640
2021-01-07 12:30 6.57 4680 (2005) 1 (1954) 332 5 8 15 20 88 337 407 1050 1640
2021-01-07 12:00 6.51 4680 (2005) 1 (1954) 332 5 8 15 20 88 337 407 1050 1640
2021-01-07 11:30 6.56 4680 (2005) 1 (1954) 332 5 8 15 20 88 337 407 1050 1640
2021-01-07 11:00 6.56 4680 (2005) 1 (1954) 332 5 8 15 20 88 337 407 1050 1640
2021-01-07 10:30 6.58 4680 (2005) 1 (1954) 332 5 8 15 20 88 337 407 1050 1640
2021-01-07 10:00 6.57 4680 (2005) 1 (1954) 332 5 8 15 20 88 337 407 1050 1640
2021-01-07 09:30 6.53 4680 (2005) 1 (1954) 332 5 8 15 20 88 337 407 1050 1640
2021-01-07 09:00 6.54 4680 (2005) 1 (1954) 332 5 8 15 20 88 337 407 1050 1640
2021-01-07 08:30 6.52 4680 (2005) 1 (1954) 332 5 8 15 20 88 337 407 1050 1640
2021-01-07 08:00 6.52 4680 (2005) 1 (1954) 332 5 8 15 20 88 337 407 1050 1640
2021-01-07 07:30 6.54 4680 (2005) 1 (1954) 332 5 8 15 20 88 337 407 1050 1640
2021-01-07 07:00 6.53 4680 (2005) 1 (1954) 332 5 8 15 20 88 337 407 1050 1640
2021-01-07 06:30 6.54 4680 (2005) 1 (1954) 332 5 8 15 20 88 337 407 1050 1640
2021-01-07 06:00 6.56 4680 (2005) 1 (1954) 332 5 8 15 20 88 337 407 1050 1640
2021-01-07 05:30 6.60 4680 (2005) 1 (1954) 332 5 8 15 20 88 337 407 1050 1640
2021-01-07 05:00 6.60 4680 (2005) 1 (1954) 332 5 8 15 20 88 337 407 1050 1640
2021-01-07 04:30 6.58 4680 (2005) 1 (1954) 332 5 8 15 20 88 337 407 1050 1640
2021-01-07 04:00 6.53 4680 (2005) 1 (1954) 332 5 8 15 20 88 337 407 1050 1640
2021-01-07 03:30 6.60 4680 (2005) 1 (1954) 332 5 8 15 20 88 337 407 1050 1640
2021-01-07 03:00 6.58 4680 (2005) 1 (1954) 332 5 8 15 20 88 337 407 1050 1640
2021-01-07 02:30 6.59 4680 (2005) 1 (1954) 332 5 8 15 20 88 337 407 1050 1640
2021-01-07 02:00 6.62 4680 (2005) 1 (1954) 332 5 8 15 20 88 337 407 1050 1640
2021-01-07 01:30 6.62 4680 (2005) 1 (1954) 332 5 8 15 20 88 337 407 1050 1640
2021-01-07 01:00 6.62 4680 (2005) 1 (1954) 332 5 8 15 20 88 337 407 1050 1640
2021-01-07 00:30 6.62 4680 (2005) 1 (1954) 332 5 8 15 20 88 337 407 1050 1640
2021-01-07 00:00 6.63 4680 (2005) 1 (1954) 332 5 8 15 20 88 337 407 1050 1640
2021-01-06 23:30 6.63 21400 (2005) 1 (1954) 671 5 8 14 20 97 265 412 1280 3410
2021-01-06 23:00 6.61 21400 (2005) 1 (1954) 671 5 8 14 20 97 265 412 1280 3410
2021-01-06 22:30 6.62 21400 (2005) 1 (1954) 671 5 8 14 20 97 265 412 1280 3410
2021-01-06 22:00 6.63 21400 (2005) 1 (1954) 671 5 8 14 20 97 265 412 1280 3410
2021-01-06 21:30 6.63 21400 (2005) 1 (1954) 671 5 8 14 20 97 265 412 1280 3410
2021-01-06 21:00 6.61 21400 (2005) 1 (1954) 671 5 8 14 20 97 265 412 1280 3410
2021-01-06 20:30 6.59 21400 (2005) 1 (1954) 671 5 8 14 20 97 265 412 1280 3410
2021-01-06 20:00 6.63 21400 (2005) 1 (1954) 671 5 8 14 20 97 265 412 1280 3410
2021-01-06 19:30 6.56 21400 (2005) 1 (1954) 671 5 8 14 20 97 265 412 1280 3410
2021-01-06 19:00 6.63 21400 (2005) 1 (1954) 671 5 8 14 20 97 265 412 1280 3410
2021-01-06 18:30 6.63 21400 (2005) 1 (1954) 671 5 8 14 20 97 265 412 1280 3410
2021-01-06 18:00 6.63 21400 (2005) 1 (1954) 671 5 8 14 20 97 265 412 1280 3410
2021-01-06 17:30 6.63 21400 (2005) 1 (1954) 671 5 8 14 20 97 265 412 1280 3410
2021-01-06 17:00 6.61 21400 (2005) 1 (1954) 671 5 8 14 20 97 265 412 1280 3410
2021-01-06 16:30 6.58 21400 (2005) 1 (1954) 671 5 8 14 20 97 265 412 1280 3410
2021-01-06 16:00 6.55 21400 (2005) 1 (1954) 671 5 8 14 20 97 265 412 1280 3410
2021-01-06 15:30 6.56 21400 (2005) 1 (1954) 671 5 8 14 20 97 265 412 1280 3410
2021-01-06 15:00 6.56 21400 (2005) 1 (1954) 671 5 8 14 20 97 265 412 1280 3410
2021-01-06 14:30 6.57 21400 (2005) 1 (1954) 671 5 8 14 20 97 265 412 1280 3410
2021-01-06 14:00 6.56 21400 (2005) 1 (1954) 671 5 8 14 20 97 265 412 1280 3410
2021-01-06 13:30 6.59 21400 (2005) 1 (1954) 671 5 8 14 20 97 265 412 1280 3410
2021-01-06 13:00 6.58 21400 (2005) 1 (1954) 671 5 8 14 20 97 265 412 1280 3410
2021-01-06 12:30 6.58 21400 (2005) 1 (1954) 671 5 8 14 20 97 265 412 1280 3410
2021-01-06 12:00 6.62 21400 (2005) 1 (1954) 671 5 8 14 20 97 265 412 1280 3410
2021-01-06 11:30 6.66 21400 (2005) 1 (1954) 671 5 8 14 20 97 265 412 1280 3410
2021-01-06 11:00 6.64 21400 (2005) 1 (1954) 671 5 8 14 20 97 265 412 1280 3410
2021-01-06 10:30 6.64 21400 (2005) 1 (1954) 671 5 8 14 20 97 265 412 1280 3410
2021-01-06 10:00 6.67 21400 (2005) 1 (1954) 671 5 8 14 20 97 265 412 1280 3410
2021-01-06 09:30 6.67 21400 (2005) 1 (1954) 671 5 8 14 20 97 265 412 1280 3410
2021-01-06 09:00 6.67 21400 (2005) 1 (1954) 671 5 8 14 20 97 265 412 1280 3410
2021-01-06 08:30 6.62 21400 (2005) 1 (1954) 671 5 8 14 20 97 265 412 1280 3410
2021-01-06 08:00 6.64 21400 (2005) 1 (1954) 671 5 8 14 20 97 265 412 1280 3410
2021-01-06 07:30 6.69 21400 (2005) 1 (1954) 671 5 8 14 20 97 265 412 1280 3410
2021-01-06 07:00 6.69 21400 (2005) 1 (1954) 671 5 8 14 20 97 265 412 1280 3410
2021-01-06 06:30 6.70 21400 (2005) 1 (1954) 671 5 8 14 20 97 265 412 1280 3410
2021-01-06 06:00 6.70 21400 (2005) 1 (1954) 671 5 8 14 20 97 265 412 1280 3410
2021-01-06 05:30 6.71 21400 (2005) 1 (1954) 671 5 8 14 20 97 265 412 1280 3410
2021-01-06 05:00 6.72 21400 (2005) 1 (1954) 671 5 8 14 20 97 265 412 1280 3410
2021-01-06 04:30 6.72 21400 (2005) 1 (1954) 671 5 8 14 20 97 265 412 1280 3410
2021-01-06 04:00 6.73 21400 (2005) 1 (1954) 671 5 8 14 20 97 265 412 1280 3410
2021-01-06 03:30 6.74 21400 (2005) 1 (1954) 671 5 8 14 20 97 265 412 1280 3410
2021-01-06 03:00 6.74 21400 (2005) 1 (1954) 671 5 8 14 20 97 265 412 1280 3410
2021-01-06 02:30 6.75 21400 (2005) 1 (1954) 671 5 8 14 20 97 265 412 1280 3410
2021-01-06 02:00 6.76 21400 (2005) 1 (1954) 671 5 8 14 20 97 265 412 1280 3410
2021-01-06 01:30 6.77 21400 (2005) 1 (1954) 671 5 8 14 20 97 265 412 1280 3410
2021-01-06 01:00 6.77 21400 (2005) 1 (1954) 671 5 8 14 20 97 265 412 1280 3410
2021-01-06 00:30 6.78 21400 (2005) 1 (1954) 671 5 8 14 20 97 265 412 1280 3410
2021-01-06 00:00 6.78 21400 (2005) 1 (1954) 671 5 8 14 20 97 265 412 1280 3410
2021-01-05 23:30 6.78 26900 (2005) 1 (1954) 829 5 8 14 24 103 331 384 1960 3340
2021-01-05 23:00 6.78 26900 (2005) 1 (1954) 829 5 8 14 24 103 331 384 1960 3340
2021-01-05 22:30 6.79 26900 (2005) 1 (1954) 829 5 8 14 24 103 331 384 1960 3340
2021-01-05 22:00 6.79 26900 (2005) 1 (1954) 829 5 8 14 24 103 331 384 1960 3340
2021-01-05 21:30 6.78 26900 (2005) 1 (1954) 829 5 8 14 24 103 331 384 1960 3340
2021-01-05 21:00 6.78 26900 (2005) 1 (1954) 829 5 8 14 24 103 331 384 1960 3340
2021-01-05 20:30 6.77 26900 (2005) 1 (1954) 829 5 8 14 24 103 331 384 1960 3340
2021-01-05 20:00 6.75 26900 (2005) 1 (1954) 829 5 8 14 24 103 331 384 1960 3340
2021-01-05 19:30 6.73 26900 (2005) 1 (1954) 829 5 8 14 24 103 331 384 1960 3340
2021-01-05 19:00 6.70 26900 (2005) 1 (1954) 829 5 8 14 24 103 331 384 1960 3340
2021-01-05 18:30 6.67 26900 (2005) 1 (1954) 829 5 8 14 24 103 331 384 1960 3340
2021-01-05 18:00 6.62 26900 (2005) 1 (1954) 829 5 8 14 24 103 331 384 1960 3340
2021-01-05 17:30 6.58 26900 (2005) 1 (1954) 829 5 8 14 24 103 331 384 1960 3340
2021-01-05 17:00 6.54 26900 (2005) 1 (1954) 829 5 8 14 24 103 331 384 1960 3340
2021-01-05 16:30 6.50 26900 (2005) 1 (1954) 829 5 8 14 24 103 331 384 1960 3340
2021-01-05 16:00 6.47 26900 (2005) 1 (1954) 829 5 8 14 24 103 331 384 1960 3340
2021-01-05 15:30 6.46 26900 (2005) 1 (1954) 829 5 8 14 24 103 331 384 1960 3340
2021-01-05 15:00 6.45 26900 (2005) 1 (1954) 829 5 8 14 24 103 331 384 1960 3340
2021-01-05 14:30 6.44 26900 (2005) 1 (1954) 829 5 8 14 24 103 331 384 1960 3340
2021-01-05 14:00 6.44 26900 (2005) 1 (1954) 829 5 8 14 24 103 331 384 1960 3340
2021-01-05 13:30 6.44 26900 (2005) 1 (1954) 829 5 8 14 24 103 331 384 1960 3340
2021-01-05 13:00 6.44 26900 (2005) 1 (1954) 829 5 8 14 24 103 331 384 1960 3340
2021-01-05 12:30 6.44 26900 (2005) 1 (1954) 829 5 8 14 24 103 331 384 1960 3340
2021-01-05 12:00 6.45 26900 (2005) 1 (1954) 829 5 8 14 24 103 331 384 1960 3340
2021-01-05 11:30 6.45 26900 (2005) 1 (1954) 829 5 8 14 24 103 331 384 1960 3340
2021-01-05 11:00 6.45 26900 (2005) 1 (1954) 829 5 8 14 24 103 331 384 1960 3340
2021-01-05 10:30 6.45 26900 (2005) 1 (1954) 829 5 8 14 24 103 331 384 1960 3340
2021-01-05 10:00 6.45 26900 (2005) 1 (1954) 829 5 8 14 24 103 331 384 1960 3340
2021-01-05 09:30 6.46 26900 (2005) 1 (1954) 829 5 8 14 24 103 331 384 1960 3340
2021-01-05 09:00 6.46 26900 (2005) 1 (1954) 829 5 8 14 24 103 331 384 1960 3340
2021-01-05 08:30 6.46 26900 (2005) 1 (1954) 829 5 8 14 24 103 331 384 1960 3340
2021-01-05 08:00 6.47 26900 (2005) 1 (1954) 829 5 8 14 24 103 331 384 1960 3340
2021-01-05 07:30 6.47 26900 (2005) 1 (1954) 829 5 8 14 24 103 331 384 1960 3340
2021-01-05 07:00 6.47 26900 (2005) 1 (1954) 829 5 8 14 24 103 331 384 1960 3340
2021-01-05 06:30 6.47 26900 (2005) 1 (1954) 829 5 8 14 24 103 331 384 1960 3340
2021-01-05 06:00 6.48 26900 (2005) 1 (1954) 829 5 8 14 24 103 331 384 1960 3340
2021-01-05 05:30 6.48 26900 (2005) 1 (1954) 829 5 8 14 24 103 331 384 1960 3340
2021-01-05 05:00 6.48 26900 (2005) 1 (1954) 829 5 8 14 24 103 331 384 1960 3340
2021-01-05 04:30 6.48 26900 (2005) 1 (1954) 829 5 8 14 24 103 331 384 1960 3340
2021-01-05 04:00 6.48 26900 (2005) 1 (1954) 829 5 8 14 24 103 331 384 1960 3340
2021-01-05 03:30 6.49 26900 (2005) 1 (1954) 829 5 8 14 24 103 331 384 1960 3340
2021-01-05 03:00 6.49 26900 (2005) 1 (1954) 829 5 8 14 24 103 331 384 1960 3340
2021-01-05 02:30 6.50 26900 (2005) 1 (1954) 829 5 8 14 24 103 331 384 1960 3340
2021-01-05 02:00 6.50 26900 (2005) 1 (1954) 829 5 8 14 24 103 331 384 1960 3340
2021-01-05 01:30 6.50 26900 (2005) 1 (1954) 829 5 8 14 24 103 331 384 1960 3340
2021-01-05 01:00 6.51 26900 (2005) 1 (1954) 829 5 8 14 24 103 331 384 1960 3340
2021-01-05 00:30 6.50 26900 (2005) 1 (1954) 829 5 8 14 24 103 331 384 1960 3340
2021-01-05 00:00 6.51 26900 (2005) 1 (1954) 829 5 8 14 24 103 331 384 1960 3340
2021-01-04 23:30 6.51 15900 (2005) 1 (1954) 778 5 9 14 24 110 300 423 832 6230
2021-01-04 23:00 6.45 15900 (2005) 1 (1954) 778 5 9 14 24 110 300 423 832 6230
2021-01-04 22:30 6.52 15900 (2005) 1 (1954) 778 5 9 14 24 110 300 423 832 6230
2021-01-04 22:00 6.51 15900 (2005) 1 (1954) 778 5 9 14 24 110 300 423 832 6230
2021-01-04 21:30 6.48 15900 (2005) 1 (1954) 778 5 9 14 24 110 300 423 832 6230
2021-01-04 21:00 6.53 15900 (2005) 1 (1954) 778 5 9 14 24 110 300 423 832 6230
2021-01-04 20:30 6.53 15900 (2005) 1 (1954) 778 5 9 14 24 110 300 423 832 6230
2021-01-04 20:00 6.51 15900 (2005) 1 (1954) 778 5 9 14 24 110 300 423 832 6230
2021-01-04 19:30 6.50 15900 (2005) 1 (1954) 778 5 9 14 24 110 300 423 832 6230
2021-01-04 19:00 6.49 15900 (2005) 1 (1954) 778 5 9 14 24 110 300 423 832 6230
2021-01-04 18:30 6.46 15900 (2005) 1 (1954) 778 5 9 14 24 110 300 423 832 6230
2021-01-04 18:00 6.52 15900 (2005) 1 (1954) 778 5 9 14 24 110 300 423 832 6230
2021-01-04 17:30 6.47 15900 (2005) 1 (1954) 778 5 9 14 24 110 300 423 832 6230
2021-01-04 17:00 6.53 15900 (2005) 1 (1954) 778 5 9 14 24 110 300 423 832 6230
2021-01-04 16:30 6.56 15900 (2005) 1 (1954) 778 5 9 14 24 110 300 423 832 6230
2021-01-04 16:00 6.56 15900 (2005) 1 (1954) 778 5 9 14 24 110 300 423 832 6230
2021-01-04 15:30 6.56 15900 (2005) 1 (1954) 778 5 9 14 24 110 300 423 832 6230
2021-01-04 15:00 6.57 15900 (2005) 1 (1954) 778 5 9 14 24 110 300 423 832 6230
2021-01-04 14:30 6.57 15900 (2005) 1 (1954) 778 5 9 14 24 110 300 423 832 6230
2021-01-04 14:00 6.57 15900 (2005) 1 (1954) 778 5 9 14 24 110 300 423 832 6230
2021-01-04 13:30 6.55 15900 (2005) 1 (1954) 778 5 9 14 24 110 300 423 832 6230
2021-01-04 13:00 6.57 15900 (2005) 1 (1954) 778 5 9 14 24 110 300 423 832 6230
2021-01-04 12:30 6.57 15900 (2005) 1 (1954) 778 5 9 14 24 110 300 423 832 6230
2021-01-04 12:00 6.57 15900 (2005) 1 (1954) 778 5 9 14 24 110 300 423 832 6230
2021-01-04 11:30 6.57 15900 (2005) 1 (1954) 778 5 9 14 24 110 300 423 832 6230
2021-01-04 11:00 6.56 15900 (2005) 1 (1954) 778 5 9 14 24 110 300 423 832 6230
2021-01-04 10:30 6.57 15900 (2005) 1 (1954) 778 5 9 14 24 110 300 423 832 6230
2021-01-04 10:00 6.57 15900 (2005) 1 (1954) 778 5 9 14 24 110 300 423 832 6230
2021-01-04 09:30 6.57 15900 (2005) 1 (1954) 778 5 9 14 24 110 300 423 832 6230
2021-01-04 09:00 6.57 15900 (2005) 1 (1954) 778 5 9 14 24 110 300 423 832 6230
2021-01-04 08:30 6.57 15900 (2005) 1 (1954) 778 5 9 14 24 110 300 423 832 6230
2021-01-04 08:00 6.57 15900 (2005) 1 (1954) 778 5 9 14 24 110 300 423 832 6230
2021-01-04 07:30 6.57 15900 (2005) 1 (1954) 778 5 9 14 24 110 300 423 832 6230
2021-01-04 07:00 6.54 15900 (2005) 1 (1954) 778 5 9 14 24 110 300 423 832 6230
2021-01-04 06:30 6.57 15900 (2005) 1 (1954) 778 5 9 14 24 110 300 423 832 6230
2021-01-04 06:00 6.57 15900 (2005) 1 (1954) 778 5 9 14 24 110 300 423 832 6230
2021-01-04 05:30 6.57 15900 (2005) 1 (1954) 778 5 9 14 24 110 300 423 832 6230
2021-01-04 05:00 6.57 15900 (2005) 1 (1954) 778 5 9 14 24 110 300 423 832 6230
2021-01-04 04:30 6.57 15900 (2005) 1 (1954) 778 5 9 14 24 110 300 423 832 6230
2021-01-04 04:00 6.57 15900 (2005) 1 (1954) 778 5 9 14 24 110 300 423 832 6230
2021-01-04 03:30 6.57 15900 (2005) 1 (1954) 778 5 9 14 24 110 300 423 832 6230
2021-01-04 03:00 6.57 15900 (2005) 1 (1954) 778 5 9 14 24 110 300 423 832 6230
2021-01-04 02:30 6.57 15900 (2005) 1 (1954) 778 5 9 14 24 110 300 423 832 6230
2021-01-04 02:00 6.57 15900 (2005) 1 (1954) 778 5 9 14 24 110 300 423 832 6230
2021-01-04 01:30 6.57 15900 (2005) 1 (1954) 778 5 9 14 24 110 300 423 832 6230
2021-01-04 01:00 6.57 15900 (2005) 1 (1954) 778 5 9 14 24 110 300 423 832 6230
2021-01-04 00:30 6.56 15900 (2005) 1 (1954) 778 5 9 14 24 110 300 423 832 6230
2021-01-04 00:00 6.56 15900 (2005) 1 (1954) 778 5 9 14 24 110 300 423 832 6230
2021-01-03 23:30 6.56 11500 (2005) 1 (1954) 447 6 9 15 23 97 221 318 908 1210
2021-01-03 23:00 6.56 11500 (2005) 1 (1954) 447 6 9 15 23 97 221 318 908 1210
2021-01-03 22:30 6.55 11500 (2005) 1 (1954) 447 6 9 15 23 97 221 318 908 1210
2021-01-03 22:00 6.54 11500 (2005) 1 (1954) 447 6 9 15 23 97 221 318 908 1210
2021-01-03 21:30 6.54 11500 (2005) 1 (1954) 447 6 9 15 23 97 221 318 908 1210
2021-01-03 21:00 6.53 11500 (2005) 1 (1954) 447 6 9 15 23 97 221 318 908 1210
2021-01-03 20:30 6.53 11500 (2005) 1 (1954) 447 6 9 15 23 97 221 318 908 1210
2021-01-03 20:00 6.53 11500 (2005) 1 (1954) 447 6 9 15 23 97 221 318 908 1210
2021-01-03 19:30 6.52 11500 (2005) 1 (1954) 447 6 9 15 23 97 221 318 908 1210
2021-01-03 19:00 6.51 11500 (2005) 1 (1954) 447 6 9 15 23 97 221 318 908 1210
2021-01-03 18:30 6.51 11500 (2005) 1 (1954) 447 6 9 15 23 97 221 318 908 1210
2021-01-03 18:00 6.51 11500 (2005) 1 (1954) 447 6 9 15 23 97 221 318 908 1210
2021-01-03 17:30 6.51 11500 (2005) 1 (1954) 447 6 9 15 23 97 221 318 908 1210
2021-01-03 17:00 6.50 11500 (2005) 1 (1954) 447 6 9 15 23 97 221 318 908 1210
2021-01-03 16:30 6.50 11500 (2005) 1 (1954) 447 6 9 15 23 97 221 318 908 1210
2021-01-03 16:00 6.50 11500 (2005) 1 (1954) 447 6 9 15 23 97 221 318 908 1210
2021-01-03 15:30 6.50 11500 (2005) 1 (1954) 447 6 9 15 23 97 221 318 908 1210
2021-01-03 15:00 6.50 11500 (2005) 1 (1954) 447 6 9 15 23 97 221 318 908 1210
2021-01-03 14:30 6.50 11500 (2005) 1 (1954) 447 6 9 15 23 97 221 318 908 1210
2021-01-03 14:00 6.50 11500 (2005) 1 (1954) 447 6 9 15 23 97 221 318 908 1210
2021-01-03 13:30 6.47 11500 (2005) 1 (1954) 447 6 9 15 23 97 221 318 908 1210
2021-01-03 13:00 6.43 11500 (2005) 1 (1954) 447 6 9 15 23 97 221 318 908 1210
2021-01-03 12:30 6.48 11500 (2005) 1 (1954) 447 6 9 15 23 97 221 318 908 1210
2021-01-03 12:00 6.49 11500 (2005) 1 (1954) 447 6 9 15 23 97 221 318 908 1210
2021-01-03 11:30 6.49 11500 (2005) 1 (1954) 447 6 9 15 23 97 221 318 908 1210
2021-01-03 11:00 6.48 11500 (2005) 1 (1954) 447 6 9 15 23 97 221 318 908 1210
2021-01-03 10:30 6.48 11500 (2005) 1 (1954) 447 6 9 15 23 97 221 318 908 1210
2021-01-03 10:00 6.43 11500 (2005) 1 (1954) 447 6 9 15 23 97 221 318 908 1210
2021-01-03 09:30 6.45 11500 (2005) 1 (1954) 447 6 9 15 23 97 221 318 908 1210
2021-01-03 09:00 6.39 11500 (2005) 1 (1954) 447 6 9 15 23 97 221 318 908 1210
2021-01-03 08:30 6.43 11500 (2005) 1 (1954) 447 6 9 15 23 97 221 318 908 1210
2021-01-03 08:00 6.36 11500 (2005) 1 (1954) 447 6 9 15 23 97 221 318 908 1210
2021-01-03 07:30 6.38 11500 (2005) 1 (1954) 447 6 9 15 23 97 221 318 908 1210
2021-01-03 07:00 6.34 11500 (2005) 1 (1954) 447 6 9 15 23 97 221 318 908 1210
2021-01-03 06:30 6.37 11500 (2005) 1 (1954) 447 6 9 15 23 97 221 318 908 1210
2021-01-03 06:00 6.33 11500 (2005) 1 (1954) 447 6 9 15 23 97 221 318 908 1210
2021-01-03 05:30 6.35 11500 (2005) 1 (1954) 447 6 9 15 23 97 221 318 908 1210
2021-01-03 05:00 6.29 11500 (2005) 1 (1954) 447 6 9 15 23 97 221 318 908 1210
2021-01-03 04:30 6.34 11500 (2005) 1 (1954) 447 6 9 15 23 97 221 318 908 1210
2021-01-03 04:00 6.28 11500 (2005) 1 (1954) 447 6 9 15 23 97 221 318 908 1210
2021-01-03 03:30 6.29 11500 (2005) 1 (1954) 447 6 9 15 23 97 221 318 908 1210
2021-01-03 03:00 6.34 11500 (2005) 1 (1954) 447 6 9 15 23 97 221 318 908 1210
2021-01-03 02:30 6.34 11500 (2005) 1 (1954) 447 6 9 15 23 97 221 318 908 1210
2021-01-03 02:00 6.33 11500 (2005) 1 (1954) 447 6 9 15 23 97 221 318 908 1210
2021-01-03 01:30 6.33 11500 (2005) 1 (1954) 447 6 9 15 23 97 221 318 908 1210
2021-01-03 01:00 6.31 11500 (2005) 1 (1954) 447 6 9 15 23 97 221 318 908 1210
2021-01-03 00:30 6.28 11500 (2005) 1 (1954) 447 6 9 15 23 97 221 318 908 1210
2021-01-03 00:00 6.27 11500 (2005) 1 (1954) 447 6 9 15 23 97 221 318 908 1210
2021-01-02 23:30 6.23 12400 (1930) 1 (1964) 480 6 9 14 23 91 233 350 1390 2600
2021-01-02 23:00 6.19 12400 (1930) 1 (1964) 480 6 9 14 23 91 233 350 1390 2600
2021-01-02 22:30 6.14 12400 (1930) 1 (1964) 480 6 9 14 23 91 233 350 1390 2600
2021-01-02 22:00 6.08 12400 (1930) 1 (1964) 480 6 9 14 23 91 233 350 1390 2600
2021-01-02 21:30 6.03 12400 (1930) 1 (1964) 480 6 9 14 23 91 233 350 1390 2600
2021-01-02 21:00 5.98 12400 (1930) 1 (1964) 480 6 9 14 23 91 233 350 1390 2600
2021-01-02 20:30 5.96 12400 (1930) 1 (1964) 480 6 9 14 23 91 233 350 1390 2600
2021-01-02 20:00 5.94 12400 (1930) 1 (1964) 480 6 9 14 23 91 233 350 1390 2600
2021-01-02 19:30 5.93 12400 (1930) 1 (1964) 480 6 9 14 23 91 233 350 1390 2600
2021-01-02 19:00 5.92 12400 (1930) 1 (1964) 480 6 9 14 23 91 233 350 1390 2600
2021-01-02 18:30 5.92 12400 (1930) 1 (1964) 480 6 9 14 23 91 233 350 1390 2600
2021-01-02 18:00 5.92 12400 (1930) 1 (1964) 480 6 9 14 23 91 233 350 1390 2600
2021-01-02 17:30 5.91 12400 (1930) 1 (1964) 480 6 9 14 23 91 233 350 1390 2600
2021-01-02 17:00 5.91 12400 (1930) 1 (1964) 480 6 9 14 23 91 233 350 1390 2600
2021-01-02 16:30 5.90 12400 (1930) 1 (1964) 480 6 9 14 23 91 233 350 1390 2600
2021-01-02 16:00 5.90 12400 (1930) 1 (1964) 480 6 9 14 23 91 233 350 1390 2600
2021-01-02 15:30 5.89 12400 (1930) 1 (1964) 480 6 9 14 23 91 233 350 1390 2600
2021-01-02 15:00 5.89 12400 (1930) 1 (1964) 480 6 9 14 23 91 233 350 1390 2600
2021-01-02 14:30 5.89 12400 (1930) 1 (1964) 480 6 9 14 23 91 233 350 1390 2600
2021-01-02 14:00 5.88 12400 (1930) 1 (1964) 480 6 9 14 23 91 233 350 1390 2600
2021-01-02 13:30 5.88 12400 (1930) 1 (1964) 480 6 9 14 23 91 233 350 1390 2600
2021-01-02 13:00 5.88 12400 (1930) 1 (1964) 480 6 9 14 23 91 233 350 1390 2600
2021-01-02 12:30 5.87 12400 (1930) 1 (1964) 480 6 9 14 23 91 233 350 1390 2600
2021-01-02 12:00 5.86 12400 (1930) 1 (1964) 480 6 9 14 23 91 233 350 1390 2600
2021-01-02 11:30 5.87 12400 (1930) 1 (1964) 480 6 9 14 23 91 233 350 1390 2600
2021-01-02 11:00 5.86 12400 (1930) 1 (1964) 480 6 9 14 23 91 233 350 1390 2600
2021-01-02 10:30 5.86 12400 (1930) 1 (1964) 480 6 9 14 23 91 233 350 1390 2600
2021-01-02 10:00 5.86 12400 (1930) 1 (1964) 480 6 9 14 23 91 233 350 1390 2600
2021-01-02 09:30 5.85 12400 (1930) 1 (1964) 480 6 9 14 23 91 233 350 1390 2600
2021-01-02 09:00 5.84 12400 (1930) 1 (1964) 480 6 9 14 23 91 233 350 1390 2600
2021-01-02 08:30 5.85 12400 (1930) 1 (1964) 480 6 9 14 23 91 233 350 1390 2600
2021-01-02 08:00 5.85 12400 (1930) 1 (1964) 480 6 9 14 23 91 233 350 1390 2600
2021-01-02 07:30 5.85 12400 (1930) 1 (1964) 480 6 9 14 23 91 233 350 1390 2600
2021-01-02 07:00 5.85 12400 (1930) 1 (1964) 480 6 9 14 23 91 233 350 1390 2600
2021-01-02 06:30 5.84 12400 (1930) 1 (1964) 480 6 9 14 23 91 233 350 1390 2600
2021-01-02 06:00 5.84 12400 (1930) 1 (1964) 480 6 9 14 23 91 233 350 1390 2600
2021-01-02 05:30 5.84 12400 (1930) 1 (1964) 480 6 9 14 23 91 233 350 1390 2600
2021-01-02 05:00 5.84 12400 (1930) 1 (1964) 480 6 9 14 23 91 233 350 1390 2600
2021-01-02 04:30 5.83 12400 (1930) 1 (1964) 480 6 9 14 23 91 233 350 1390 2600
2021-01-02 04:00 5.83 12400 (1930) 1 (1964) 480 6 9 14 23 91 233 350 1390 2600
2021-01-02 03:30 5.83 12400 (1930) 1 (1964) 480 6 9 14 23 91 233 350 1390 2600
2021-01-02 03:00 5.82 12400 (1930) 1 (1964) 480 6 9 14 23 91 233 350 1390 2600
2021-01-02 02:30 5.82 12400 (1930) 1 (1964) 480 6 9 14 23 91 233 350 1390 2600
2021-01-02 02:00 5.81 12400 (1930) 1 (1964) 480 6 9 14 23 91 233 350 1390 2600
2021-01-02 01:30 5.76 12400 (1930) 1 (1964) 480 6 9 14 23 91 233 350 1390 2600
2021-01-02 01:00 5.80 12400 (1930) 1 (1964) 480 6 9 14 23 91 233 350 1390 2600
2021-01-02 00:30 5.80 12400 (1930) 1 (1964) 480 6 9 14 23 91 233 350 1390 2600
2021-01-02 00:00 5.79 12400 (1930) 1 (1964) 480 6 9 14 23 91 233 350 1390 2600
2021-01-01 23:30 5.72 20500 (2019) 1 (1964) 672 6 9 15 22 89 271 508 1030 3800
2021-01-01 23:00 5.78 20500 (2019) 1 (1964) 672 6 9 15 22 89 271 508 1030 3800
2021-01-01 22:30 5.78 20500 (2019) 1 (1964) 672 6 9 15 22 89 271 508 1030 3800
2021-01-01 22:00 5.77 20500 (2019) 1 (1964) 672 6 9 15 22 89 271 508 1030 3800
2021-01-01 21:30 5.77 20500 (2019) 1 (1964) 672 6 9 15 22 89 271 508 1030 3800
2021-01-01 21:00 5.68 20500 (2019) 1 (1964) 672 6 9 15 22 89 271 508 1030 3800
2021-01-01 20:30 5.72 20500 (2019) 1 (1964) 672 6 9 15 22 89 271 508 1030 3800
2021-01-01 20:00 5.73 20500 (2019) 1 (1964) 672 6 9 15 22 89 271 508 1030 3800
2021-01-01 19:30 5.70 20500 (2019) 1 (1964) 672 6 9 15 22 89 271 508 1030 3800
2021-01-01 19:00 5.71 20500 (2019) 1 (1964) 672 6 9 15 22 89 271 508 1030 3800
2021-01-01 18:30 5.70 20500 (2019) 1 (1964) 672 6 9 15 22 89 271 508 1030 3800
2021-01-01 18:00 5.69 20500 (2019) 1 (1964) 672 6 9 15 22 89 271 508 1030 3800
2021-01-01 17:30 5.68 20500 (2019) 1 (1964) 672 6 9 15 22 89 271 508 1030 3800
2021-01-01 17:00 5.66 20500 (2019) 1 (1964) 672 6 9 15 22 89 271 508 1030 3800
2021-01-01 16:30 5.68 20500 (2019) 1 (1964) 672 6 9 15 22 89 271 508 1030 3800
2021-01-01 16:00 5.69 20500 (2019) 1 (1964) 672 6 9 15 22 89 271 508 1030 3800
2021-01-01 15:30 5.66 20500 (2019) 1 (1964) 672 6 9 15 22 89 271 508 1030 3800
2021-01-01 15:00 5.68 20500 (2019) 1 (1964) 672 6 9 15 22 89 271 508 1030 3800
2021-01-01 14:30 5.67 20500 (2019) 1 (1964) 672 6 9 15 22 89 271 508 1030 3800
2021-01-01 14:00 5.70 20500 (2019) 1 (1964) 672 6 9 15 22 89 271 508 1030 3800
2021-01-01 13:30 5.70 20500 (2019) 1 (1964) 672 6 9 15 22 89 271 508 1030 3800
2021-01-01 13:00 5.68 20500 (2019) 1 (1964) 672 6 9 15 22 89 271 508 1030 3800
2021-01-01 12:30 5.69 20500 (2019) 1 (1964) 672 6 9 15 22 89 271 508 1030 3800
2021-01-01 12:00 5.69 20500 (2019) 1 (1964) 672 6 9 15 22 89 271 508 1030 3800
2021-01-01 11:30 5.61 20500 (2019) 1 (1964) 672 6 9 15 22 89 271 508 1030 3800
2021-01-01 11:00 5.68 20500 (2019) 1 (1964) 672 6 9 15 22 89 271 508 1030 3800
2021-01-01 10:30 5.59 20500 (2019) 1 (1964) 672 6 9 15 22 89 271 508 1030 3800
2021-01-01 10:00 5.62 20500 (2019) 1 (1964) 672 6 9 15 22 89 271 508 1030 3800
2021-01-01 09:30 5.68 20500 (2019) 1 (1964) 672 6 9 15 22 89 271 508 1030 3800
2021-01-01 09:00 5.62 20500 (2019) 1 (1964) 672 6 9 15 22 89 271 508 1030 3800
2021-01-01 08:30 5.57 20500 (2019) 1 (1964) 672 6 9 15 22 89 271 508 1030 3800
2021-01-01 08:00 5.67 20500 (2019) 1 (1964) 672 6 9 15 22 89 271 508 1030 3800
2021-01-01 07:30 5.58 20500 (2019) 1 (1964) 672 6 9 15 22 89 271 508 1030 3800
2021-01-01 07:00 5.65 20500 (2019) 1 (1964) 672 6 9 15 22 89 271 508 1030 3800
2021-01-01 06:30 5.64 20500 (2019) 1 (1964) 672 6 9 15 22 89 271 508 1030 3800
2021-01-01 06:00 5.62 20500 (2019) 1 (1964) 672 6 9 15 22 89 271 508 1030 3800
2021-01-01 05:30 5.63 20500 (2019) 1 (1964) 672 6 9 15 22 89 271 508 1030 3800
2021-01-01 05:00 5.62 20500 (2019) 1 (1964) 672 6 9 15 22 89 271 508 1030 3800
2021-01-01 04:30 5.61 20500 (2019) 1 (1964) 672 6 9 15 22 89 271 508 1030 3800
2021-01-01 04:00 5.61 20500 (2019) 1 (1964) 672 6 9 15 22 89 271 508 1030 3800
2021-01-01 03:30 5.61 20500 (2019) 1 (1964) 672 6 9 15 22 89 271 508 1030 3800
2021-01-01 03:00 5.60 20500 (2019) 1 (1964) 672 6 9 15 22 89 271 508 1030 3800
2021-01-01 02:30 5.61 20500 (2019) 1 (1964) 672 6 9 15 22 89 271 508 1030 3800
2021-01-01 02:00 5.58 20500 (2019) 1 (1964) 672 6 9 15 22 89 271 508 1030 3800
2021-01-01 01:30 5.54 20500 (2019) 1 (1964) 672 6 9 15 22 89 271 508 1030 3800
2021-01-01 01:00 5.53 20500 (2019) 1 (1964) 672 6 9 15 22 89 271 508 1030 3800
2021-01-01 00:30 5.60 20500 (2019) 1 (1964) 672 6 9 15 22 89 271 508 1030 3800
2021-01-01 00:00 5.60 20500 (2019) 1 (1964) 672 6 9 15 22 89 271 508 1030 3800
2020-12-31 23:30 5.60 13700 (2019) 1 (1964) 551 7 9 14 17 95 260 468 1310 3800
2020-12-31 23:00 5.59 13700 (2019) 1 (1964) 551 7 9 14 17 95 260 468 1310 3800
2020-12-31 22:30 5.62 13700 (2019) 1 (1964) 551 7 9 14 17 95 260 468 1310 3800
2020-12-31 22:00 5.60 13700 (2019) 1 (1964) 551 7 9 14 17 95 260 468 1310 3800
2020-12-31 21:30 5.59 13700 (2019) 1 (1964) 551 7 9 14 17 95 260 468 1310 3800
2020-12-31 21:00 5.57 13700 (2019) 1 (1964) 551 7 9 14 17 95 260 468 1310 3800
2020-12-31 20:30 5.58 13700 (2019) 1 (1964) 551 7 9 14 17 95 260 468 1310 3800
2020-12-31 20:00 5.57 13700 (2019) 1 (1964) 551 7 9 14 17 95 260 468 1310 3800
2020-12-31 19:30 5.58 13700 (2019) 1 (1964) 551 7 9 14 17 95 260 468 1310 3800
2020-12-31 19:00 5.58 13700 (2019) 1 (1964) 551 7 9 14 17 95 260 468 1310 3800
2020-12-31 18:30 5.58 13700 (2019) 1 (1964) 551 7 9 14 17 95 260 468 1310 3800
2020-12-31 18:00 5.58 13700 (2019) 1 (1964) 551 7 9 14 17 95 260 468 1310 3800
2020-12-31 17:30 5.57 13700 (2019) 1 (1964) 551 7 9 14 17 95 260 468 1310 3800
2020-12-31 17:00 5.54 13700 (2019) 1 (1964) 551 7 9 14 17 95 260 468 1310 3800
2020-12-31 16:30 5.55 13700 (2019) 1 (1964) 551 7 9 14 17 95 260 468 1310 3800
2020-12-31 16:00 5.55 13700 (2019) 1 (1964) 551 7 9 14 17 95 260 468 1310 3800
2020-12-31 15:30 5.57 13700 (2019) 1 (1964) 551 7 9 14 17 95 260 468 1310 3800
2020-12-31 15:00 5.62 13700 (2019) 1 (1964) 551 7 9 14 17 95 260 468 1310 3800
2020-12-31 14:30 5.59 13700 (2019) 1 (1964) 551 7 9 14 17 95 260 468 1310 3800
2020-12-31 14:00 5.56 13700 (2019) 1 (1964) 551 7 9 14 17 95 260 468 1310 3800
2020-12-31 13:30 5.55 13700 (2019) 1 (1964) 551 7 9 14 17 95 260 468 1310 3800
2020-12-31 13:00 5.55 13700 (2019) 1 (1964) 551 7 9 14 17 95 260 468 1310 3800
2020-12-31 12:30 5.56 13700 (2019) 1 (1964) 551 7 9 14 17 95 260 468 1310 3800
2020-12-31 12:00 5.55 13700 (2019) 1 (1964) 551 7 9 14 17 95 260 468 1310 3800
2020-12-31 11:30 5.55 13700 (2019) 1 (1964) 551 7 9 14 17 95 260 468 1310 3800
2020-12-31 11:00 5.54 13700 (2019) 1 (1964) 551 7 9 14 17 95 260 468 1310 3800
2020-12-31 10:30 5.55 13700 (2019) 1 (1964) 551 7 9 14 17 95 260 468 1310 3800
2020-12-31 10:00 5.54 13700 (2019) 1 (1964) 551 7 9 14 17 95 260 468 1310 3800
2020-12-31 09:30 5.56 13700 (2019) 1 (1964) 551 7 9 14 17 95 260 468 1310 3800
2020-12-31 09:00 5.56 13700 (2019) 1 (1964) 551 7 9 14 17 95 260 468 1310 3800
2020-12-31 08:30 5.57 13700 (2019) 1 (1964) 551 7 9 14 17 95 260 468 1310 3800
2020-12-31 08:00 5.57 13700 (2019) 1 (1964) 551 7 9 14 17 95 260 468 1310 3800
2020-12-31 07:30 5.55 13700 (2019) 1 (1964) 551 7 9 14 17 95 260 468 1310 3800
2020-12-31 07:00 5.60 13700 (2019) 1 (1964) 551 7 9 14 17 95 260 468 1310 3800
2020-12-31 06:30 5.65 13700 (2019) 1 (1964) 551 7 9 14 17 95 260 468 1310 3800
2020-12-31 06:00 5.62 13700 (2019) 1 (1964) 551 7 9 14 17 95 260 468 1310 3800
2020-12-31 05:30 5.61 13700 (2019) 1 (1964) 551 7 9 14 17 95 260 468 1310 3800
2020-12-31 05:00 5.61 13700 (2019) 1 (1964) 551 7 9 14 17 95 260 468 1310 3800
2020-12-31 04:30 5.59 13700 (2019) 1 (1964) 551 7 9 14 17 95 260 468 1310 3800
2020-12-31 04:00 5.60 13700 (2019) 1 (1964) 551 7 9 14 17 95 260 468 1310 3800
2020-12-31 03:30 5.63 13700 (2019) 1 (1964) 551 7 9 14 17 95 260 468 1310 3800
2020-12-31 03:00 5.61 13700 (2019) 1 (1964) 551 7 9 14 17 95 260 468 1310 3800
2020-12-31 02:30 5.61 13700 (2019) 1 (1964) 551 7 9 14 17 95 260 468 1310 3800
2020-12-31 02:00 5.61 13700 (2019) 1 (1964) 551 7 9 14 17 95 260 468 1310 3800
2020-12-31 01:30 5.61 13700 (2019) 1 (1964) 551 7 9 14 17 95 260 468 1310 3800
2020-12-31 01:00 5.61 13700 (2019) 1 (1964) 551 7 9 14 17 95 260 468 1310 3800
2020-12-31 00:30 5.61 13700 (2019) 1 (1964) 551 7 9 14 17 95 260 468 1310 3800
2020-12-31 00:00 5.61 13700 (2019) 1 (1964) 551 7 9 14 17 95 260 468 1310 3800
2020-12-30 23:30 5.61 6230 (1991) 1 (1964) 424 7 9 14 18 90 235 328 1040 3460
2020-12-30 23:00 5.61 6230 (1991) 1 (1964) 424 7 9 14 18 90 235 328 1040 3460
2020-12-30 22:30 5.61 6230 (1991) 1 (1964) 424 7 9 14 18 90 235 328 1040 3460
2020-12-30 22:00 5.61 6230 (1991) 1 (1964) 424 7 9 14 18 90 235 328 1040 3460
2020-12-30 21:30 5.60 6230 (1991) 1 (1964) 424 7 9 14 18 90 235 328 1040 3460
2020-12-30 21:00 5.61 6230 (1991) 1 (1964) 424 7 9 14 18 90 235 328 1040 3460
2020-12-30 20:30 5.60 6230 (1991) 1 (1964) 424 7 9 14 18 90 235 328 1040 3460
2020-12-30 20:00 5.60 6230 (1991) 1 (1964) 424 7 9 14 18 90 235 328 1040 3460
2020-12-30 19:30 5.60 6230 (1991) 1 (1964) 424 7 9 14 18 90 235 328 1040 3460
2020-12-30 19:00 5.60 6230 (1991) 1 (1964) 424 7 9 14 18 90 235 328 1040 3460
2020-12-30 18:30 5.60 6230 (1991) 1 (1964) 424 7 9 14 18 90 235 328 1040 3460
2020-12-30 18:00 5.60 6230 (1991) 1 (1964) 424 7 9 14 18 90 235 328 1040 3460
2020-12-30 17:30 5.58 6230 (1991) 1 (1964) 424 7 9 14 18 90 235 328 1040 3460
2020-12-30 17:00 5.61 6230 (1991) 1 (1964) 424 7 9 14 18 90 235 328 1040 3460
2020-12-30 16:30 5.60 6230 (1991) 1 (1964) 424 7 9 14 18 90 235 328 1040 3460
2020-12-30 16:00 5.57 6230 (1991) 1 (1964) 424 7 9 14 18 90 235 328 1040 3460
2020-12-30 15:30 5.54 6230 (1991) 1 (1964) 424 7 9 14 18 90 235 328 1040 3460
2020-12-30 15:00 5.59 6230 (1991) 1 (1964) 424 7 9 14 18 90 235 328 1040 3460
2020-12-30 14:30 5.60 6230 (1991) 1 (1964) 424 7 9 14 18 90 235 328 1040 3460
2020-12-30 14:00 5.54 6230 (1991) 1 (1964) 424 7 9 14 18 90 235 328 1040 3460
2020-12-30 13:30 5.60 6230 (1991) 1 (1964) 424 7 9 14 18 90 235 328 1040 3460
2020-12-30 13:00 5.53 6230 (1991) 1 (1964) 424 7 9 14 18 90 235 328 1040 3460
2020-12-30 12:30 5.52 6230 (1991) 1 (1964) 424 7 9 14 18 90 235 328 1040 3460
2020-12-30 12:00 5.60 6230 (1991) 1 (1964) 424 7 9 14 18 90 235 328 1040 3460
2020-12-30 11:30 5.52 6230 (1991) 1 (1964) 424 7 9 14 18 90 235 328 1040 3460
2020-12-30 11:00 5.54 6230 (1991) 1 (1964) 424 7 9 14 18 90 235 328 1040 3460
2020-12-30 10:30 5.56 6230 (1991) 1 (1964) 424 7 9 14 18 90 235 328 1040 3460
2020-12-30 10:00 5.52 6230 (1991) 1 (1964) 424 7 9 14 18 90 235 328 1040 3460
2020-12-30 09:30 5.55 6230 (1991) 1 (1964) 424 7 9 14 18 90 235 328 1040 3460
2020-12-30 09:00 5.50 6230 (1991) 1 (1964) 424 7 9 14 18 90 235 328 1040 3460
2020-12-30 08:30 5.56 6230 (1991) 1 (1964) 424 7 9 14 18 90 235 328 1040 3460
2020-12-30 08:00 5.53 6230 (1991) 1 (1964) 424 7 9 14 18 90 235 328 1040 3460
2020-12-30 07:30 5.53 6230 (1991) 1 (1964) 424 7 9 14 18 90 235 328 1040 3460
2020-12-30 07:00 5.57 6230 (1991) 1 (1964) 424 7 9 14 18 90 235 328 1040 3460
2020-12-30 06:30 5.54 6230 (1991) 1 (1964) 424 7 9 14 18 90 235 328 1040 3460
2020-12-30 06:00 5.58 6230 (1991) 1 (1964) 424 7 9 14 18 90 235 328 1040 3460
2020-12-30 05:30 5.58 6230 (1991) 1 (1964) 424 7 9 14 18 90 235 328 1040 3460
2020-12-30 05:00 5.58 6230 (1991) 1 (1964) 424 7 9 14 18 90 235 328 1040 3460
2020-12-30 04:30 5.58 6230 (1991) 1 (1964) 424 7 9 14 18 90 235 328 1040 3460
2020-12-30 04:00 5.57 6230 (1991) 1 (1964) 424 7 9 14 18 90 235 328 1040 3460
2020-12-30 03:30 5.57 6230 (1991) 1 (1964) 424 7 9 14 18 90 235 328 1040 3460
2020-12-30 03:00 5.56 6230 (1991) 1 (1964) 424 7 9 14 18 90 235 328 1040 3460
2020-12-30 02:30 5.56 6230 (1991) 1 (1964) 424 7 9 14 18 90 235 328 1040 3460
2020-12-30 02:00 5.56 6230 (1991) 1 (1964) 424 7 9 14 18 90 235 328 1040 3460
2020-12-30 01:30 5.53 6230 (1991) 1 (1964) 424 7 9 14 18 90 235 328 1040 3460
2020-12-30 01:00 5.51 6230 (1991) 1 (1964) 424 7 9 14 18 90 235 328 1040 3460
2020-12-30 00:30 5.56 6230 (1991) 1 (1964) 424 7 9 14 18 90 235 328 1040 3460
2020-12-30 00:00 5.56 6230 (1991) 1 (1964) 424 7 9 14 18 90 235 328 1040 3460
2020-12-29 23:30 5.56 27300 (2016) 1 (1964) 857 7 10 15 20 99 272 329 1280 3520
2020-12-29 23:00 5.56 27300 (2016) 1 (1964) 857 7 10 15 20 99 272 329 1280 3520
2020-12-29 22:30 5.56 27300 (2016) 1 (1964) 857 7 10 15 20 99 272 329 1280 3520
2020-12-29 22:00 5.56 27300 (2016) 1 (1964) 857 7 10 15 20 99 272 329 1280 3520
2020-12-29 21:30 5.56 27300 (2016) 1 (1964) 857 7 10 15 20 99 272 329 1280 3520
2020-12-29 21:00 5.56 27300 (2016) 1 (1964) 857 7 10 15 20 99 272 329 1280 3520
2020-12-29 20:30 5.55 27300 (2016) 1 (1964) 857 7 10 15 20 99 272 329 1280 3520
2020-12-29 20:00 5.55 27300 (2016) 1 (1964) 857 7 10 15 20 99 272 329 1280 3520
2020-12-29 19:30 5.56 27300 (2016) 1 (1964) 857 7 10 15 20 99 272 329 1280 3520
2020-12-29 19:00 5.56 27300 (2016) 1 (1964) 857 7 10 15 20 99 272 329 1280 3520
2020-12-29 18:30 5.57 27300 (2016) 1 (1964) 857 7 10 15 20 99 272 329 1280 3520
2020-12-29 18:00 5.58 27300 (2016) 1 (1964) 857 7 10 15 20 99 272 329 1280 3520
2020-12-29 17:30 5.47 27300 (2016) 1 (1964) 857 7 10 15 20 99 272 329 1280 3520
2020-12-29 17:00 5.54 27300 (2016) 1 (1964) 857 7 10 15 20 99 272 329 1280 3520
2020-12-29 16:30 5.54 27300 (2016) 1 (1964) 857 7 10 15 20 99 272 329 1280 3520
2020-12-29 16:00 5.53 27300 (2016) 1 (1964) 857 7 10 15 20 99 272 329 1280 3520
2020-12-29 15:30 5.50 27300 (2016) 1 (1964) 857 7 10 15 20 99 272 329 1280 3520
2020-12-29 15:00 5.48 27300 (2016) 1 (1964) 857 7 10 15 20 99 272 329 1280 3520
2020-12-29 14:30 5.54 27300 (2016) 1 (1964) 857 7 10 15 20 99 272 329 1280 3520
2020-12-29 14:00 5.53 27300 (2016) 1 (1964) 857 7 10 15 20 99 272 329 1280 3520
2020-12-29 13:30 5.52 27300 (2016) 1 (1964) 857 7 10 15 20 99 272 329 1280 3520
2020-12-29 13:00 5.51 27300 (2016) 1 (1964) 857 7 10 15 20 99 272 329 1280 3520
2020-12-29 12:30 5.50 27300 (2016) 1 (1964) 857 7 10 15 20 99 272 329 1280 3520
2020-12-29 12:00 5.42 27300 (2016) 1 (1964) 857 7 10 15 20 99 272 329 1280 3520
2020-12-29 11:30 5.50 27300 (2016) 1 (1964) 857 7 10 15 20 99 272 329 1280 3520
2020-12-29 11:00 5.51 27300 (2016) 1 (1964) 857 7 10 15 20 99 272 329 1280 3520
2020-12-29 10:30 5.51 27300 (2016) 1 (1964) 857 7 10 15 20 99 272 329 1280 3520
2020-12-29 09:30 5.51 27300 (2016) 1 (1964) 857 7 10 15 20 99 272 329 1280 3520
2020-12-29 09:00 5.50 27300 (2016) 1 (1964) 857 7 10 15 20 99 272 329 1280 3520
2020-12-29 08:30 5.51 50 27300 (2016) 1 (1964) 857 7 10 15 20 99 272 329 1280 3520
2020-12-29 08:00 5.49 48 27300 (2016) 1 (1964) 857 7 10 15 20 99 272 329 1280 3520
2020-12-29 07:30 5.46 45 27300 (2016) 1 (1964) 857 7 10 15 20 99 272 329 1280 3520
2020-12-29 07:00 5.48 47 27300 (2016) 1 (1964) 857 7 10 15 20 99 272 329 1280 3520
2020-12-29 06:30 5.50 49 27300 (2016) 1 (1964) 857 7 10 15 20 99 272 329 1280 3520
2020-12-29 06:00 5.50 49 27300 (2016) 1 (1964) 857 7 10 15 20 99 272 329 1280 3520
2020-12-29 05:30 5.50 49 27300 (2016) 1 (1964) 857 7 10 15 20 99 272 329 1280 3520
2020-12-29 05:00 5.51 50 27300 (2016) 1 (1964) 857 7 10 15 20 99 272 329 1280 3520
2020-12-29 04:30 5.51 50 27300 (2016) 1 (1964) 857 7 10 15 20 99 272 329 1280 3520
2020-12-29 04:00 5.51 50 27300 (2016) 1 (1964) 857 7 10 15 20 99 272 329 1280 3520
2020-12-29 03:30 5.51 50 27300 (2016) 1 (1964) 857 7 10 15 20 99 272 329 1280 3520
2020-12-29 03:00 5.51 50 27300 (2016) 1 (1964) 857 7 10 15 20 99 272 329 1280 3520
2020-12-29 02:30 5.51 50 27300 (2016) 1 (1964) 857 7 10 15 20 99 272 329 1280 3520
2020-12-29 02:00 5.51 50 27300 (2016) 1 (1964) 857 7 10 15 20 99 272 329 1280 3520
2020-12-29 01:30 5.52 52 27300 (2016) 1 (1964) 857 7 10 15 20 99 272 329 1280 3520
2020-12-29 01:00 5.52 52 27300 (2016) 1 (1964) 857 7 10 15 20 99 272 329 1280 3520
2020-12-29 00:30 5.52 52 27300 (2016) 1 (1964) 857 7 10 15 20 99 272 329 1280 3520
2020-12-29 00:00 5.53 53 27300 (2016) 1 (1964) 857 7 10 15 20 99 272 329 1280 3520
2020-12-28 23:30 5.53 53 32600 (2016) 1 (1964) 1240 6 7 16 20 92 214 315 1300 9980
2020-12-28 23:00 5.52 52 32600 (2016) 1 (1964) 1240 6 7 16 20 92 214 315 1300 9980
2020-12-28 22:30 5.51 50 32600 (2016) 1 (1964) 1240 6 7 16 20 92 214 315 1300 9980
2020-12-28 22:00 5.51 50 32600 (2016) 1 (1964) 1240 6 7 16 20 92 214 315 1300 9980
2020-12-28 21:30 5.50 49 32600 (2016) 1 (1964) 1240 6 7 16 20 92 214 315 1300 9980
2020-12-28 21:00 5.49 48 32600 (2016) 1 (1964) 1240 6 7 16 20 92 214 315 1300 9980
2020-12-28 20:30 5.47 46 32600 (2016) 1 (1964) 1240 6 7 16 20 92 214 315 1300 9980
2020-12-28 20:00 5.45 44 32600 (2016) 1 (1964) 1240 6 7 16 20 92 214 315 1300 9980
2020-12-28 19:30 5.46 45 32600 (2016) 1 (1964) 1240 6 7 16 20 92 214 315 1300 9980
2020-12-28 19:00 5.50 49 32600 (2016) 1 (1964) 1240 6 7 16 20 92 214 315 1300 9980
2020-12-28 18:30 5.52 52 32600 (2016) 1 (1964) 1240 6 7 16 20 92 214 315 1300 9980
2020-12-28 18:00 5.53 53 32600 (2016) 1 (1964) 1240 6 7 16 20 92 214 315 1300 9980
2020-12-28 17:30 5.53 53 32600 (2016) 1 (1964) 1240 6 7 16 20 92 214 315 1300 9980
2020-12-28 17:00 5.53 53 32600 (2016) 1 (1964) 1240 6 7 16 20 92 214 315 1300 9980
2020-12-28 16:30 5.53 53 32600 (2016) 1 (1964) 1240 6 7 16 20 92 214 315 1300 9980
2020-12-28 16:00 5.54 54 32600 (2016) 1 (1964) 1240 6 7 16 20 92 214 315 1300 9980
2020-12-28 15:30 5.55 55 32600 (2016) 1 (1964) 1240 6 7 16 20 92 214 315 1300 9980
2020-12-28 15:00 5.64 32600 (2016) 1 (1964) 1240 6 7 16 20 92 214 315 1300 9980
2020-12-28 14:30 5.56 56 32600 (2016) 1 (1964) 1240 6 7 16 20 92 214 315 1300 9980
2020-12-28 14:00 5.57 57 32600 (2016) 1 (1964) 1240 6 7 16 20 92 214 315 1300 9980
2020-12-28 13:30 5.57 57 32600 (2016) 1 (1964) 1240 6 7 16 20 92 214 315 1300 9980
2020-12-28 13:00 5.56 56 32600 (2016) 1 (1964) 1240 6 7 16 20 92 214 315 1300 9980
2020-12-28 12:30 5.55 55 32600 (2016) 1 (1964) 1240 6 7 16 20 92 214 315 1300 9980
2020-12-28 12:00 5.54 54 32600 (2016) 1 (1964) 1240 6 7 16 20 92 214 315 1300 9980
2020-12-28 11:30 5.52 52 32600 (2016) 1 (1964) 1240 6 7 16 20 92 214 315 1300 9980
2020-12-28 11:00 5.44 43 32600 (2016) 1 (1964) 1240 6 7 16 20 92 214 315 1300 9980
2020-12-28 10:30 5.46 45 32600 (2016) 1 (1964) 1240 6 7 16 20 92 214 315 1300 9980
2020-12-28 10:00 5.50 49 32600 (2016) 1 (1964) 1240 6 7 16 20 92 214 315 1300 9980
2020-12-28 09:30 5.51 50 32600 (2016) 1 (1964) 1240 6 7 16 20 92 214 315 1300 9980
2020-12-28 09:00 5.52 52 32600 (2016) 1 (1964) 1240 6 7 16 20 92 214 315 1300 9980
2020-12-28 08:30 5.53 53 32600 (2016) 1 (1964) 1240 6 7 16 20 92 214 315 1300 9980
2020-12-28 08:00 5.53 53 32600 (2016) 1 (1964) 1240 6 7 16 20 92 214 315 1300 9980
2020-12-28 07:30 5.53 53 32600 (2016) 1 (1964) 1240 6 7 16 20 92 214 315 1300 9980
2020-12-28 07:00 5.52 52 32600 (2016) 1 (1964) 1240 6 7 16 20 92 214 315 1300 9980
2020-12-28 06:30 5.50 49 32600 (2016) 1 (1964) 1240 6 7 16 20 92 214 315 1300 9980
2020-12-28 06:00 5.44 43 32600 (2016) 1 (1964) 1240 6 7 16 20 92 214 315 1300 9980
2020-12-28 05:30 5.40 39 32600 (2016) 1 (1964) 1240 6 7 16 20 92 214 315 1300 9980
2020-12-28 05:00 5.49 48 32600 (2016) 1 (1964) 1240 6 7 16 20 92 214 315 1300 9980
2020-12-28 04:30 5.52 52 32600 (2016) 1 (1964) 1240 6 7 16 20 92 214 315 1300 9980
2020-12-28 04:00 5.52 52 32600 (2016) 1 (1964) 1240 6 7 16 20 92 214 315 1300 9980
2020-12-28 03:30 5.53 53 32600 (2016) 1 (1964) 1240 6 7 16 20 92 214 315 1300 9980
2020-12-28 03:00 5.53 53 32600 (2016) 1 (1964) 1240 6 7 16 20 92 214 315 1300 9980
2020-12-28 02:30 5.53 53 32600 (2016) 1 (1964) 1240 6 7 16 20 92 214 315 1300 9980
2020-12-28 02:00 5.51 50 32600 (2016) 1 (1964) 1240 6 7 16 20 92 214 315 1300 9980
2020-12-28 01:30 5.50 49 32600 (2016) 1 (1964) 1240 6 7 16 20 92 214 315 1300 9980
2020-12-28 01:00 5.48 47 32600 (2016) 1 (1964) 1240 6 7 16 20 92 214 315 1300 9980
2020-12-28 00:30 5.49 48 32600 (2016) 1 (1964) 1240 6 7 16 20 92 214 315 1300 9980
2020-12-28 00:00 5.49 48 32600 (2016) 1 (1964) 1240 6 7 16 20 92 214 315 1300 9980
2020-12-27 23:30 5.49 48 29500 (2016) 1 (1964) 923 6 9 15 20 84 222 331 1110 2470
2020-12-27 23:00 5.49 48 29500 (2016) 1 (1964) 923 6 9 15 20 84 222 331 1110 2470
2020-12-27 22:30 5.49 48 29500 (2016) 1 (1964) 923 6 9 15 20 84 222 331 1110 2470
2020-12-27 22:00 5.49 48 29500 (2016) 1 (1964) 923 6 9 15 20 84 222 331 1110 2470
2020-12-27 21:30 5.49 48 29500 (2016) 1 (1964) 923 6 9 15 20 84 222 331 1110 2470
2020-12-27 21:00 5.51 50 29500 (2016) 1 (1964) 923 6 9 15 20 84 222 331 1110 2470
2020-12-27 20:30 5.54 54 29500 (2016) 1 (1964) 923 6 9 15 20 84 222 331 1110 2470
2020-12-27 20:00 5.70 75 29500 (2016) 1 (1964) 923 6 9 15 20 84 222 331 1110 2470
2020-12-27 19:30 5.60 61 29500 (2016) 1 (1964) 923 6 9 15 20 84 222 331 1110 2470
2020-12-27 19:00 5.59 60 29500 (2016) 1 (1964) 923 6 9 15 20 84 222 331 1110 2470
2020-12-27 18:30 5.58 59 29500 (2016) 1 (1964) 923 6 9 15 20 84 222 331 1110 2470
2020-12-27 18:00 5.58 59 29500 (2016) 1 (1964) 923 6 9 15 20 84 222 331 1110 2470
2020-12-27 17:30 5.59 60 29500 (2016) 1 (1964) 923 6 9 15 20 84 222 331 1110 2470
2020-12-27 17:00 5.58 59 29500 (2016) 1 (1964) 923 6 9 15 20 84 222 331 1110 2470
2020-12-27 16:30 5.58 59 29500 (2016) 1 (1964) 923 6 9 15 20 84 222 331 1110 2470
2020-12-27 16:00 5.59 60 29500 (2016) 1 (1964) 923 6 9 15 20 84 222 331 1110 2470
2020-12-27 15:30 5.59 60 29500 (2016) 1 (1964) 923 6 9 15 20 84 222 331 1110 2470
2020-12-27 15:00 5.59 60 29500 (2016) 1 (1964) 923 6 9 15 20 84 222 331 1110 2470
2020-12-27 14:30 5.60 61 29500 (2016) 1 (1964) 923 6 9 15 20 84 222 331 1110 2470
2020-12-27 14:00 5.59 60 29500 (2016) 1 (1964) 923 6 9 15 20 84 222 331 1110 2470
2020-12-27 13:30 5.59 60 29500 (2016) 1 (1964) 923 6 9 15 20 84 222 331 1110 2470
2020-12-27 13:00 5.59 60 29500 (2016) 1 (1964) 923 6 9 15 20 84 222 331 1110 2470
2020-12-27 12:30 5.59 60 29500 (2016) 1 (1964) 923 6 9 15 20 84 222 331 1110 2470
2020-12-27 12:00 5.59 60 29500 (2016) 1 (1964) 923 6 9 15 20 84 222 331 1110 2470
2020-12-27 11:30 5.60 61 29500 (2016) 1 (1964) 923 6 9 15 20 84 222 331 1110 2470
2020-12-27 11:00 5.59 60 29500 (2016) 1 (1964) 923 6 9 15 20 84 222 331 1110 2470
2020-12-27 10:30 5.54 54 29500 (2016) 1 (1964) 923 6 9 15 20 84 222 331 1110 2470
2020-12-27 10:00 5.51 50 29500 (2016) 1 (1964) 923 6 9 15 20 84 222 331 1110 2470
2020-12-27 09:30 5.50 49 29500 (2016) 1 (1964) 923 6 9 15 20 84 222 331 1110 2470
2020-12-27 09:00 5.49 48 29500 (2016) 1 (1964) 923 6 9 15 20 84 222 331 1110 2470
2020-12-27 08:30 5.49 48 29500 (2016) 1 (1964) 923 6 9 15 20 84 222 331 1110 2470
2020-12-27 08:00 5.48 47 29500 (2016) 1 (1964) 923 6 9 15 20 84 222 331 1110 2470
2020-12-27 07:30 5.49 48 29500 (2016) 1 (1964) 923 6 9 15 20 84 222 331 1110 2470
2020-12-27 07:00 5.49 48 29500 (2016) 1 (1964) 923 6 9 15 20 84 222 331 1110 2470
2020-12-27 06:30 5.49 48 29500 (2016) 1 (1964) 923 6 9 15 20 84 222 331 1110 2470
2020-12-27 06:00 5.49 48 29500 (2016) 1 (1964) 923 6 9 15 20 84 222 331 1110 2470
2020-12-27 05:30 5.48 47 29500 (2016) 1 (1964) 923 6 9 15 20 84 222 331 1110 2470
2020-12-27 05:00 5.47 46 29500 (2016) 1 (1964) 923 6 9 15 20 84 222 331 1110 2470
2020-12-27 04:30 5.46 45 29500 (2016) 1 (1964) 923 6 9 15 20 84 222 331 1110 2470
2020-12-27 04:00 5.46 45 29500 (2016) 1 (1964) 923 6 9 15 20 84 222 331 1110 2470
2020-12-27 03:30 5.44 43 29500 (2016) 1 (1964) 923 6 9 15 20 84 222 331 1110 2470
2020-12-27 03:00 5.42 41 29500 (2016) 1 (1964) 923 6 9 15 20 84 222 331 1110 2470
2020-12-27 02:30 5.41 40 29500 (2016) 1 (1964) 923 6 9 15 20 84 222 331 1110 2470
2020-12-27 02:00 5.38 38 29500 (2016) 1 (1964) 923 6 9 15 20 84 222 331 1110 2470
2020-12-27 01:30 5.36 36 29500 (2016) 1 (1964) 923 6 9 15 20 84 222 331 1110 2470
2020-12-27 01:00 5.32 32 29500 (2016) 1 (1964) 923 6 9 15 20 84 222 331 1110 2470
2020-12-27 00:30 5.29 30 29500 (2016) 1 (1964) 923 6 9 15 20 84 222 331 1110 2470
2020-12-27 00:00 5.28 29 29500 (2016) 1 (1964) 923 6 9 15 20 84 222 331 1110 2470
2020-12-26 23:30 5.28 29 6240 (1983) 1 (1964) 426 5 10 15 19 72 234 342 773 2760
2020-12-26 23:00 5.30 31 6240 (1983) 1 (1964) 426 5 10 15 19 72 234 342 773 2760
2020-12-26 22:30 5.33 33 6240 (1983) 1 (1964) 426 5 10 15 19 72 234 342 773 2760
2020-12-26 22:00 5.35 35 6240 (1983) 1 (1964) 426 5 10 15 19 72 234 342 773 2760
2020-12-26 21:30 5.37 37 6240 (1983) 1 (1964) 426 5 10 15 19 72 234 342 773 2760
2020-12-26 21:00 5.39 38 6240 (1983) 1 (1964) 426 5 10 15 19 72 234 342 773 2760
2020-12-26 20:30 5.40 39 6240 (1983) 1 (1964) 426 5 10 15 19 72 234 342 773 2760
2020-12-26 20:00 5.42 41 6240 (1983) 1 (1964) 426 5 10 15 19 72 234 342 773 2760
2020-12-26 19:30 5.43 42 6240 (1983) 1 (1964) 426 5 10 15 19 72 234 342 773 2760
2020-12-26 19:00 5.44 43 6240 (1983) 1 (1964) 426 5 10 15 19 72 234 342 773 2760
2020-12-26 18:30 5.45 44 6240 (1983) 1 (1964) 426 5 10 15 19 72 234 342 773 2760
2020-12-26 18:00 5.46 45 6240 (1983) 1 (1964) 426 5 10 15 19 72 234 342 773 2760
2020-12-26 17:30 5.47 46 6240 (1983) 1 (1964) 426 5 10 15 19 72 234 342 773 2760
2020-12-26 17:00 5.50 49 6240 (1983) 1 (1964) 426 5 10 15 19 72 234 342 773 2760
2020-12-26 16:30 5.58 59 6240 (1983) 1 (1964) 426 5 10 15 19 72 234 342 773 2760
2020-12-26 16:00 5.66 69 6240 (1983) 1 (1964) 426 5 10 15 19 72 234 342 773 2760
2020-12-26 15:30 5.69 73 6240 (1983) 1 (1964) 426 5 10 15 19 72 234 342 773 2760
2020-12-26 15:00 5.74 81 6240 (1983) 1 (1964) 426 5 10 15 19 72 234 342 773 2760
2020-12-26 14:30 5.26 28 6240 (1983) 1 (1964) 426 5 10 15 19 72 234 342 773 2760
2020-12-26 14:00 5.28 29 6240 (1983) 1 (1964) 426 5 10 15 19 72 234 342 773 2760
2020-12-26 13:30 5.29 30 6240 (1983) 1 (1964) 426 5 10 15 19 72 234 342 773 2760
2020-12-26 13:00 5.32 32 6240 (1983) 1 (1964) 426 5 10 15 19 72 234 342 773 2760
2020-12-26 12:30 5.58 59 6240 (1983) 1 (1964) 426 5 10 15 19 72 234 342 773 2760
2020-12-26 12:00 5.59 60 6240 (1983) 1 (1964) 426 5 10 15 19 72 234 342 773 2760
2020-12-26 11:30 5.50 49 6240 (1983) 1 (1964) 426 5 10 15 19 72 234 342 773 2760
2020-12-26 11:00 5.48 47 6240 (1983) 1 (1964) 426 5 10 15 19 72 234 342 773 2760
2020-12-26 10:30 5.48 47 6240 (1983) 1 (1964) 426 5 10 15 19 72 234 342 773 2760
2020-12-26 10:00 5.48 47 6240 (1983) 1 (1964) 426 5 10 15 19 72 234 342 773 2760
2020-12-26 09:30 5.47 46 6240 (1983) 1 (1964) 426 5 10 15 19 72 234 342 773 2760
2020-12-26 09:00 5.47 46 6240 (1983) 1 (1964) 426 5 10 15 19 72 234 342 773 2760
2020-12-26 08:30 5.44 43 6240 (1983) 1 (1964) 426 5 10 15 19 72 234 342 773 2760
2020-12-26 08:00 5.38 38 6240 (1983) 1 (1964) 426 5 10 15 19 72 234 342 773 2760
2020-12-26 07:30 5.30 31 6240 (1983) 1 (1964) 426 5 10 15 19 72 234 342 773 2760
2020-12-26 07:00 5.36 36 6240 (1983) 1 (1964) 426 5 10 15 19 72 234 342 773 2760
2020-12-26 06:30 5.43 42 6240 (1983) 1 (1964) 426 5 10 15 19 72 234 342 773 2760
2020-12-26 06:00 5.47 46 6240 (1983) 1 (1964) 426 5 10 15 19 72 234 342 773 2760
2020-12-26 05:30 5.49 48 6240 (1983) 1 (1964) 426 5 10 15 19 72 234 342 773 2760
2020-12-26 05:00 5.50 49 6240 (1983) 1 (1964) 426 5 10 15 19 72 234 342 773 2760
2020-12-26 04:30 5.48 47 6240 (1983) 1 (1964) 426 5 10 15 19 72 234 342 773 2760
2020-12-26 04:00 5.42 41 6240 (1983) 1 (1964) 426 5 10 15 19 72 234 342 773 2760
2020-12-26 03:30 5.32 32 6240 (1983) 1 (1964) 426 5 10 15 19 72 234 342 773 2760
2020-12-26 03:00 5.36 36 6240 (1983) 1 (1964) 426 5 10 15 19 72 234 342 773 2760
2020-12-26 02:30 5.43 42 6240 (1983) 1 (1964) 426 5 10 15 19 72 234 342 773 2760
2020-12-26 02:00 5.47 46 6240 (1983) 1 (1964) 426 5 10 15 19 72 234 342 773 2760
2020-12-26 01:30 5.50 49 6240 (1983) 1 (1964) 426 5 10 15 19 72 234 342 773 2760
2020-12-26 01:00 5.51 50 6240 (1983) 1 (1964) 426 5 10 15 19 72 234 342 773 2760
2020-12-26 00:30 5.49 48 6240 (1983) 1 (1964) 426 5 10 15 19 72 234 342 773 2760
2020-12-26 00:00 5.44 43 6240 (1983) 1 (1964) 426 5 10 15 19 72 234 342 773 2760
2020-12-25 23:30 5.35 35 18100 (2010) 1 (1964) 625 5 10 17 21 74 262 404 966 1690
2020-12-25 23:00 5.32 32 18100 (2010) 1 (1964) 625 5 10 17 21 74 262 404 966 1690
2020-12-25 22:30 5.41 40 18100 (2010) 1 (1964) 625 5 10 17 21 74 262 404 966 1690
2020-12-25 22:00 5.46 45 18100 (2010) 1 (1964) 625 5 10 17 21 74 262 404 966 1690
2020-12-25 21:30 5.48 47 18100 (2010) 1 (1964) 625 5 10 17 21 74 262 404 966 1690
2020-12-25 21:00 5.49 48 18100 (2010) 1 (1964) 625 5 10 17 21 74 262 404 966 1690
2020-12-25 20:30 5.49 48 18100 (2010) 1 (1964) 625 5 10 17 21 74 262 404 966 1690
2020-12-25 20:00 5.45 44 18100 (2010) 1 (1964) 625 5 10 17 21 74 262 404 966 1690
2020-12-25 19:30 5.38 38 18100 (2010) 1 (1964) 625 5 10 17 21 74 262 404 966 1690
2020-12-25 19:00 5.31 32 18100 (2010) 1 (1964) 625 5 10 17 21 74 262 404 966 1690
2020-12-25 18:30 5.40 39 18100 (2010) 1 (1964) 625 5 10 17 21 74 262 404 966 1690
2020-12-25 18:00 5.46 45 18100 (2010) 1 (1964) 625 5 10 17 21 74 262 404 966 1690
2020-12-25 17:30 5.50 49 18100 (2010) 1 (1964) 625 5 10 17 21 74 262 404 966 1690
2020-12-25 17:00 5.52 52 18100 (2010) 1 (1964) 625 5 10 17 21 74 262 404 966 1690
2020-12-25 16:30 5.51 50 18100 (2010) 1 (1964) 625 5 10 17 21 74 262 404 966 1690
2020-12-25 16:00 5.48 47 18100 (2010) 1 (1964) 625 5 10 17 21 74 262 404 966 1690
2020-12-25 15:30 5.45 44 18100 (2010) 1 (1964) 625 5 10 17 21 74 262 404 966 1690
2020-12-25 15:00 5.43 42 18100 (2010) 1 (1964) 625 5 10 17 21 74 262 404 966 1690
2020-12-25 14:30 5.42 41 18100 (2010) 1 (1964) 625 5 10 17 21 74 262 404 966 1690
2020-12-25 14:00 5.36 36 18100 (2010) 1 (1964) 625 5 10 17 21 74 262 404 966 1690
2020-12-25 13:30 5.47 46 18100 (2010) 1 (1964) 625 5 10 17 21 74 262 404 966 1690
2020-12-25 13:00 5.52 52 18100 (2010) 1 (1964) 625 5 10 17 21 74 262 404 966 1690
2020-12-25 12:30 5.54 54 18100 (2010) 1 (1964) 625 5 10 17 21 74 262 404 966 1690
2020-12-25 12:00 5.52 52 18100 (2010) 1 (1964) 625 5 10 17 21 74 262 404 966 1690
2020-12-25 11:30 5.51 50 18100 (2010) 1 (1964) 625 5 10 17 21 74 262 404 966 1690
2020-12-25 11:00 5.47 46 18100 (2010) 1 (1964) 625 5 10 17 21 74 262 404 966 1690
2020-12-25 10:30 5.39 38 18100 (2010) 1 (1964) 625 5 10 17 21 74 262 404 966 1690
2020-12-25 10:00 5.50 49 18100 (2010) 1 (1964) 625 5 10 17 21 74 262 404 966 1690
2020-12-25 09:30 5.55 55 18100 (2010) 1 (1964) 625 5 10 17 21 74 262 404 966 1690
2020-12-25 09:00 5.55 55 18100 (2010) 1 (1964) 625 5 10 17 21 74 262 404 966 1690
2020-12-25 08:30 5.41 40 18100 (2010) 1 (1964) 625 5 10 17 21 74 262 404 966 1690
2020-12-25 08:00 5.55 55 18100 (2010) 1 (1964) 625 5 10 17 21 74 262 404 966 1690
2020-12-25 07:30 5.58 59 18100 (2010) 1 (1964) 625 5 10 17 21 74 262 404 966 1690
2020-12-25 07:00 5.48 47 18100 (2010) 1 (1964) 625 5 10 17 21 74 262 404 966 1690
2020-12-25 06:30 5.56 56 18100 (2010) 1 (1964) 625 5 10 17 21 74 262 404 966 1690
2020-12-25 06:00 5.59 60 18100 (2010) 1 (1964) 625 5 10 17 21 74 262 404 966 1690
2020-12-25 05:30 5.54 54 18100 (2010) 1 (1964) 625 5 10 17 21 74 262 404 966 1690
2020-12-25 05:00 5.59 60 18100 (2010) 1 (1964) 625 5 10 17 21 74 262 404 966 1690
2020-12-25 04:30 5.61 62 18100 (2010) 1 (1964) 625 5 10 17 21 74 262 404 966 1690
2020-12-25 04:00 5.59 60 18100 (2010) 1 (1964) 625 5 10 17 21 74 262 404 966 1690
2020-12-25 03:30 5.62 64 18100 (2010) 1 (1964) 625 5 10 17 21 74 262 404 966 1690
2020-12-25 03:00 5.64 66 18100 (2010) 1 (1964) 625 5 10 17 21 74 262 404 966 1690
2020-12-25 02:30 5.63 65 18100 (2010) 1 (1964) 625 5 10 17 21 74 262 404 966 1690
2020-12-25 02:00 5.43 42 18100 (2010) 1 (1964) 625 5 10 17 21 74 262 404 966 1690
2020-12-25 01:30 5.62 64 18100 (2010) 1 (1964) 625 5 10 17 21 74 262 404 966 1690
2020-12-25 01:00 5.63 65 18100 (2010) 1 (1964) 625 5 10 17 21 74 262 404 966 1690
2020-12-25 00:30 5.63 65 18100 (2010) 1 (1964) 625 5 10 17 21 74 262 404 966 1690
2020-12-25 00:00 5.53 53 18100 (2010) 1 (1964) 625 5 10 17 21 74 262 404 966 1690
2020-12-24 23:30 5.60 61 17300 (2010) 1 (1964) 747 5 8 15 22 76 325 616 1260 3650
2020-12-24 23:00 5.56 56 17300 (2010) 1 (1964) 747 5 8 15 22 76 325 616 1260 3650
2020-12-24 22:30 5.57 57 17300 (2010) 1 (1964) 747 5 8 15 22 76 325 616 1260 3650
2020-12-24 22:00 5.61 62 17300 (2010) 1 (1964) 747 5 8 15 22 76 325 616 1260 3650
2020-12-24 21:30 5.60 61 17300 (2010) 1 (1964) 747 5 8 15 22 76 325 616 1260 3650
2020-12-24 21:00 5.58 59 17300 (2010) 1 (1964) 747 5 8 15 22 76 325 616 1260 3650
2020-12-24 20:30 5.64 66 17300 (2010) 1 (1964) 747 5 8 15 22 76 325 616 1260 3650
2020-12-24 20:00 5.64 66 17300 (2010) 1 (1964) 747 5 8 15 22 76 325 616 1260 3650
2020-12-24 19:30 5.64 66 17300 (2010) 1 (1964) 747 5 8 15 22 76 325 616 1260 3650
2020-12-24 19:00 5.64 66 17300 (2010) 1 (1964) 747 5 8 15 22 76 325 616 1260 3650
2020-12-24 18:30 5.64 66 17300 (2010) 1 (1964) 747 5 8 15 22 76 325 616 1260 3650
2020-12-24 18:00 5.60 61 17300 (2010) 1 (1964) 747 5 8 15 22 76 325 616 1260 3650
2020-12-24 17:30 5.59 60 17300 (2010) 1 (1964) 747 5 8 15 22 76 325 616 1260 3650
2020-12-24 17:00 5.59 60 17300 (2010) 1 (1964) 747 5 8 15 22 76 325 616 1260 3650
2020-12-24 16:30 5.56 56 17300 (2010) 1 (1964) 747 5 8 15 22 76 325 616 1260 3650
2020-12-24 16:00 5.57 57 17300 (2010) 1 (1964) 747 5 8 15 22 76 325 616 1260 3650
2020-12-24 15:30 5.57 57 17300 (2010) 1 (1964) 747 5 8 15 22 76 325 616 1260 3650
2020-12-24 15:00 5.57 57 17300 (2010) 1 (1964) 747 5 8 15 22 76 325 616 1260 3650
2020-12-24 14:30 5.56 56 17300 (2010) 1 (1964) 747 5 8 15 22 76 325 616 1260 3650
2020-12-24 14:00 5.58 59 17300 (2010) 1 (1964) 747 5 8 15 22 76 325 616 1260 3650
2020-12-24 13:30 5.58 59 17300 (2010) 1 (1964) 747 5 8 15 22 76 325 616 1260 3650
2020-12-24 13:00 5.58 59 17300 (2010) 1 (1964) 747 5 8 15 22 76 325 616 1260 3650
2020-12-24 12:30 5.57 57 17300 (2010) 1 (1964) 747 5 8 15 22 76 325 616 1260 3650
2020-12-24 12:00 5.58 59 17300 (2010) 1 (1964) 747 5 8 15 22 76 325 616 1260 3650
2020-12-24 11:30 5.58 59 17300 (2010) 1 (1964) 747 5 8 15 22 76 325 616 1260 3650
2020-12-24 11:00 5.56 56 17300 (2010) 1 (1964) 747 5 8 15 22 76 325 616 1260 3650
2020-12-24 10:30 5.58 59 17300 (2010) 1 (1964) 747 5 8 15 22 76 325 616 1260 3650
2020-12-24 10:00 5.58 59 17300 (2010) 1 (1964) 747 5 8 15 22 76 325 616 1260 3650
2020-12-24 09:30 5.57 57 17300 (2010) 1 (1964) 747 5 8 15 22 76 325 616 1260 3650
2020-12-24 09:00 5.62 64 17300 (2010) 1 (1964) 747 5 8 15 22 76 325 616 1260 3650
2020-12-24 08:30 5.60 61 17300 (2010) 1 (1964) 747 5 8 15 22 76 325 616 1260 3650
2020-12-24 08:00 5.57 57 17300 (2010) 1 (1964) 747 5 8 15 22 76 325 616 1260 3650
2020-12-24 07:30 5.56 56 17300 (2010) 1 (1964) 747 5 8 15 22 76 325 616 1260 3650
2020-12-24 07:00 5.58 59 17300 (2010) 1 (1964) 747 5 8 15 22 76 325 616 1260 3650
2020-12-24 06:30 5.59 60 17300 (2010) 1 (1964) 747 5 8 15 22 76 325 616 1260 3650
2020-12-24 06:00 5.58 59 17300 (2010) 1 (1964) 747 5 8 15 22 76 325 616 1260 3650
2020-12-24 05:30 5.58 59 17300 (2010) 1 (1964) 747 5 8 15 22 76 325 616 1260 3650
2020-12-24 05:00 5.58 59 17300 (2010) 1 (1964) 747 5 8 15 22 76 325 616 1260 3650
2020-12-24 04:30 5.59 60 17300 (2010) 1 (1964) 747 5 8 15 22 76 325 616 1260 3650
2020-12-24 04:00 5.61 62 17300 (2010) 1 (1964) 747 5 8 15 22 76 325 616 1260 3650
2020-12-24 03:30 5.61 62 17300 (2010) 1 (1964) 747 5 8 15 22 76 325 616 1260 3650
2020-12-24 03:00 5.59 60 17300 (2010) 1 (1964) 747 5 8 15 22 76 325 616 1260 3650
2020-12-24 02:30 5.59 60 17300 (2010) 1 (1964) 747 5 8 15 22 76 325 616 1260 3650
2020-12-24 02:00 5.58 59 17300 (2010) 1 (1964) 747 5 8 15 22 76 325 616 1260 3650
2020-12-24 01:30 5.60 61 17300 (2010) 1 (1964) 747 5 8 15 22 76 325 616 1260 3650
2020-12-24 01:00 5.58 59 17300 (2010) 1 (1964) 747 5 8 15 22 76 325 616 1260 3650
2020-12-24 00:30 5.59 60 17300 (2010) 1 (1964) 747 5 8 15 22 76 325 616 1260 3650
2020-12-24 00:00 5.59 60 17300 (2010) 1 (1964) 747 5 8 15 22 76 325 616 1260 3650
2020-12-23 23:30 5.58 59 12600 (2004) 1 (1964) 544 5 8 15 20 81 312 443 1230 3400
2020-12-23 23:00 5.60 61 12600 (2004) 1 (1964) 544 5 8 15 20 81 312 443 1230 3400
2020-12-23 22:30 5.57 57 12600 (2004) 1 (1964) 544 5 8 15 20 81 312 443 1230 3400
2020-12-23 22:00 5.59 60 12600 (2004) 1 (1964) 544 5 8 15 20 81 312 443 1230 3400
2020-12-23 21:30 5.58 59 12600 (2004) 1 (1964) 544 5 8 15 20 81 312 443 1230 3400
2020-12-23 21:00 5.59 60 12600 (2004) 1 (1964) 544 5 8 15 20 81 312 443 1230 3400
2020-12-23 20:30 5.59 60 12600 (2004) 1 (1964) 544 5 8 15 20 81 312 443 1230 3400
2020-12-23 20:00 5.59 60 12600 (2004) 1 (1964) 544 5 8 15 20 81 312 443 1230 3400
2020-12-23 19:30 5.59 60 12600 (2004) 1 (1964) 544 5 8 15 20 81 312 443 1230 3400
2020-12-23 19:00 5.61 62 12600 (2004) 1 (1964) 544 5 8 15 20 81 312 443 1230 3400
2020-12-23 18:30 5.59 60 12600 (2004) 1 (1964) 544 5 8 15 20 81 312 443 1230 3400
2020-12-23 18:00 5.61 62 12600 (2004) 1 (1964) 544 5 8 15 20 81 312 443 1230 3400
2020-12-23 17:30 5.62 64 12600 (2004) 1 (1964) 544 5 8 15 20 81 312 443 1230 3400
2020-12-23 17:00 5.63 65 12600 (2004) 1 (1964) 544 5 8 15 20 81 312 443 1230 3400
2020-12-23 16:30 5.60 61 12600 (2004) 1 (1964) 544 5 8 15 20 81 312 443 1230 3400
2020-12-23 16:00 5.60 61 12600 (2004) 1 (1964) 544 5 8 15 20 81 312 443 1230 3400
2020-12-23 15:30 5.62 64 12600 (2004) 1 (1964) 544 5 8 15 20 81 312 443 1230 3400
2020-12-23 15:00 5.63 65 12600 (2004) 1 (1964) 544 5 8 15 20 81 312 443 1230 3400
2020-12-23 14:30 5.64 66 12600 (2004) 1 (1964) 544 5 8 15 20 81 312 443 1230 3400
2020-12-23 14:00 5.61 62 12600 (2004) 1 (1964) 544 5 8 15 20 81 312 443 1230 3400
2020-12-23 13:30 5.60 61 12600 (2004) 1 (1964) 544 5 8 15 20 81 312 443 1230 3400
2020-12-23 13:00 5.58 59 12600 (2004) 1 (1964) 544 5 8 15 20 81 312 443 1230 3400
2020-12-23 12:30 5.64 66 12600 (2004) 1 (1964) 544 5 8 15 20 81 312 443 1230 3400
2020-12-23 12:00 5.60 61 12600 (2004) 1 (1964) 544 5 8 15 20 81 312 443 1230 3400
2020-12-23 11:30 5.60 61 12600 (2004) 1 (1964) 544 5 8 15 20 81 312 443 1230 3400
2020-12-23 11:00 5.60 61 12600 (2004) 1 (1964) 544 5 8 15 20 81 312 443 1230 3400
2020-12-23 10:30 5.60 61 12600 (2004) 1 (1964) 544 5 8 15 20 81 312 443 1230 3400
2020-12-23 10:00 5.59 60 12600 (2004) 1 (1964) 544 5 8 15 20 81 312 443 1230 3400
2020-12-23 09:30 5.62 64 12600 (2004) 1 (1964) 544 5 8 15 20 81 312 443 1230 3400
2020-12-23 09:00 5.64 66 12600 (2004) 1 (1964) 544 5 8 15 20 81 312 443 1230 3400
2020-12-23 08:30 5.65 68 12600 (2004) 1 (1964) 544 5 8 15 20 81 312 443 1230 3400
2020-12-23 08:00 5.60 61 12600 (2004) 1 (1964) 544 5 8 15 20 81 312 443 1230 3400
2020-12-23 07:30 5.58 59 12600 (2004) 1 (1964) 544 5 8 15 20 81 312 443 1230 3400
2020-12-23 07:00 5.61 62 12600 (2004) 1 (1964) 544 5 8 15 20 81 312 443 1230 3400
2020-12-23 06:30 5.67 70 12600 (2004) 1 (1964) 544 5 8 15 20 81 312 443 1230 3400
2020-12-23 06:00 5.58 59 12600 (2004) 1 (1964) 544 5 8 15 20 81 312 443 1230 3400
2020-12-23 05:30 5.60 61 12600 (2004) 1 (1964) 544 5 8 15 20 81 312 443 1230 3400
2020-12-23 05:00 5.61 62 12600 (2004) 1 (1964) 544 5 8 15 20 81 312 443 1230 3400
2020-12-23 04:30 5.61 62 12600 (2004) 1 (1964) 544 5 8 15 20 81 312 443 1230 3400
2020-12-23 04:00 5.60 61 12600 (2004) 1 (1964) 544 5 8 15 20 81 312 443 1230 3400
2020-12-23 03:30 5.68 72 12600 (2004) 1 (1964) 544 5 8 15 20 81 312 443 1230 3400
2020-12-23 03:00 5.68 72 12600 (2004) 1 (1964) 544 5 8 15 20 81 312 443 1230 3400
2020-12-23 02:30 5.68 72 12600 (2004) 1 (1964) 544 5 8 15 20 81 312 443 1230 3400
2020-12-23 02:00 5.68 72 12600 (2004) 1 (1964) 544 5 8 15 20 81 312 443 1230 3400
2020-12-23 01:30 5.68 72 12600 (2004) 1 (1964) 544 5 8 15 20 81 312 443 1230 3400
2020-12-23 01:00 5.68 72 12600 (2004) 1 (1964) 544 5 8 15 20 81 312 443 1230 3400
2020-12-23 00:30 5.68 72 12600 (2004) 1 (1964) 544 5 8 15 20 81 312 443 1230 3400
2020-12-23 00:00 5.68 72 12600 (2004) 1 (1964) 544 5 8 15 20 81 312 443 1230 3400
2020-12-22 23:30 5.68 72 13700 (1950) 1 (1964) 480 4 8 15 20 80 202 278 694 1550
2020-12-22 23:00 5.68 72 13700 (1950) 1 (1964) 480 4 8 15 20 80 202 278 694 1550
2020-12-22 22:30 5.60 61 13700 (1950) 1 (1964) 480 4 8 15 20 80 202 278 694 1550
2020-12-22 22:00 5.68 72 13700 (1950) 1 (1964) 480 4 8 15 20 80 202 278 694 1550
2020-12-22 21:30 5.66 69 13700 (1950) 1 (1964) 480 4 8 15 20 80 202 278 694 1550
2020-12-22 21:00 5.68 72 13700 (1950) 1 (1964) 480 4 8 15 20 80 202 278 694 1550
2020-12-22 20:30 5.68 72 13700 (1950) 1 (1964) 480 4 8 15 20 80 202 278 694 1550
2020-12-22 20:00 5.68 72 13700 (1950) 1 (1964) 480 4 8 15 20 80 202 278 694 1550
2020-12-22 19:30 5.68 72 13700 (1950) 1 (1964) 480 4 8 15 20 80 202 278 694 1550
2020-12-22 19:00 5.68 72 13700 (1950) 1 (1964) 480 4 8 15 20 80 202 278 694 1550
2020-12-22 18:30 5.68 72 13700 (1950) 1 (1964) 480 4 8 15 20 80 202 278 694 1550
2020-12-22 18:00 5.68 72 13700 (1950) 1 (1964) 480 4 8 15 20 80 202 278 694 1550
2020-12-22 17:30 5.65 68 13700 (1950) 1 (1964) 480 4 8 15 20 80 202 278 694 1550
2020-12-22 17:00 5.69 73 13700 (1950) 1 (1964) 480 4 8 15 20 80 202 278 694 1550
2020-12-22 16:30 5.68 72 13700 (1950) 1 (1964) 480 4 8 15 20 80 202 278 694 1550
2020-12-22 16:00 5.65 68 13700 (1950) 1 (1964) 480 4 8 15 20 80 202 278 694 1550
2020-12-22 15:30 5.63 65 13700 (1950) 1 (1964) 480 4 8 15 20 80 202 278 694 1550
2020-12-22 15:00 5.62 64 13700 (1950) 1 (1964) 480 4 8 15 20 80 202 278 694 1550
2020-12-22 14:30 5.67 70 13700 (1950) 1 (1964) 480 4 8 15 20 80 202 278 694 1550
2020-12-22 14:00 5.63 65 13700 (1950) 1 (1964) 480 4 8 15 20 80 202 278 694 1550
2020-12-22 13:30 5.70 75 13700 (1950) 1 (1964) 480 4 8 15 20 80 202 278 694 1550
2020-12-22 13:00 5.64 66 13700 (1950) 1 (1964) 480 4 8 15 20 80 202 278 694 1550
2020-12-22 12:30 5.66 69 13700 (1950) 1 (1964) 480 4 8 15 20 80 202 278 694 1550
2020-12-22 12:00 5.64 66 13700 (1950) 1 (1964) 480 4 8 15 20 80 202 278 694 1550
2020-12-22 11:30 5.67 70 13700 (1950) 1 (1964) 480 4 8 15 20 80 202 278 694 1550
2020-12-22 11:00 5.70 75 13700 (1950) 1 (1964) 480 4 8 15 20 80 202 278 694 1550
2020-12-22 10:30 5.68 72 13700 (1950) 1 (1964) 480 4 8 15 20 80 202 278 694 1550
2020-12-22 10:00 5.70 75 13700 (1950) 1 (1964) 480 4 8 15 20 80 202 278 694 1550
2020-12-22 09:30 5.70 75 13700 (1950) 1 (1964) 480 4 8 15 20 80 202 278 694 1550
2020-12-22 09:00 5.70 75 13700 (1950) 1 (1964) 480 4 8 15 20 80 202 278 694 1550
2020-12-22 08:30 5.70 75 13700 (1950) 1 (1964) 480 4 8 15 20 80 202 278 694 1550
2020-12-22 08:00 5.70 75 13700 (1950) 1 (1964) 480 4 8 15 20 80 202 278 694 1550
2020-12-22 07:30 5.70 75 13700 (1950) 1 (1964) 480 4 8 15 20 80 202 278 694 1550
2020-12-22 07:00 5.70 75 13700 (1950) 1 (1964) 480 4 8 15 20 80 202 278 694 1550
2020-12-22 06:30 5.71 76 13700 (1950) 1 (1964) 480 4 8 15 20 80 202 278 694 1550
2020-12-22 06:00 5.71 76 13700 (1950) 1 (1964) 480 4 8 15 20 80 202 278 694 1550
2020-12-22 05:30 5.71 76 13700 (1950) 1 (1964) 480 4 8 15 20 80 202 278 694 1550
2020-12-22 05:00 5.71 76 13700 (1950) 1 (1964) 480 4 8 15 20 80 202 278 694 1550
2020-12-22 04:30 5.71 76 13700 (1950) 1 (1964) 480 4 8 15 20 80 202 278 694 1550
2020-12-22 04:00 5.71 76 13700 (1950) 1 (1964) 480 4 8 15 20 80 202 278 694 1550
2020-12-22 03:30 5.71 76 13700 (1950) 1 (1964) 480 4 8 15 20 80 202 278 694 1550
2020-12-22 03:00 5.71 76 13700 (1950) 1 (1964) 480 4 8 15 20 80 202 278 694 1550
2020-12-22 02:30 5.71 76 13700 (1950) 1 (1964) 480 4 8 15 20 80 202 278 694 1550
2020-12-22 02:00 5.71 76 13700 (1950) 1 (1964) 480 4 8 15 20 80 202 278 694 1550
2020-12-22 01:30 5.71 76 13700 (1950) 1 (1964) 480 4 8 15 20 80 202 278 694 1550
2020-12-22 01:00 5.71 76 13700 (1950) 1 (1964) 480 4 8 15 20 80 202 278 694 1550
2020-12-22 00:30 5.71 76 13700 (1950) 1 (1964) 480 4 8 15 20 80 202 278 694 1550
2020-12-22 00:00 5.71 76 13700 (1950) 1 (1964) 480 4 8 15 20 80 202 278 694 1550
2020-12-21 23:30 5.71 76 11400 (1968) 1 (1964) 382 4 7 16 20 64 198 254 630 1140
2020-12-21 23:00 5.71 76 11400 (1968) 1 (1964) 382 4 7 16 20 64 198 254 630 1140
2020-12-21 22:30 5.69 73 11400 (1968) 1 (1964) 382 4 7 16 20 64 198 254 630 1140
2020-12-21 22:00 5.71 76 11400 (1968) 1 (1964) 382 4 7 16 20 64 198 254 630 1140
2020-12-21 21:30 5.70 75 11400 (1968) 1 (1964) 382 4 7 16 20 64 198 254 630 1140
2020-12-21 21:00 5.70 75 11400 (1968) 1 (1964) 382 4 7 16 20 64 198 254 630 1140
2020-12-21 20:30 5.67 70 11400 (1968) 1 (1964) 382 4 7 16 20 64 198 254 630 1140
2020-12-21 20:00 5.64 66 11400 (1968) 1 (1964) 382 4 7 16 20 64 198 254 630 1140
2020-12-21 19:30 5.67 70 11400 (1968) 1 (1964) 382 4 7 16 20 64 198 254 630 1140
2020-12-21 19:00 5.64 66 11400 (1968) 1 (1964) 382 4 7 16 20 64 198 254 630 1140
2020-12-21 18:30 5.65 68 11400 (1968) 1 (1964) 382 4 7 16 20 64 198 254 630 1140
2020-12-21 18:00 5.65 68 11400 (1968) 1 (1964) 382 4 7 16 20 64 198 254 630 1140
2020-12-21 17:30 5.66 69 11400 (1968) 1 (1964) 382 4 7 16 20 64 198 254 630 1140
2020-12-21 17:00 5.66 69 11400 (1968) 1 (1964) 382 4 7 16 20 64 198 254 630 1140
2020-12-21 16:30 5.64 66 11400 (1968) 1 (1964) 382 4 7 16 20 64 198 254 630 1140
2020-12-21 16:00 5.64 66 11400 (1968) 1 (1964) 382 4 7 16 20 64 198 254 630 1140
2020-12-21 15:30 5.63 65 11400 (1968) 1 (1964) 382 4 7 16 20 64 198 254 630 1140
2020-12-21 15:00 5.64 66 11400 (1968) 1 (1964) 382 4 7 16 20 64 198 254 630 1140
2020-12-21 14:30 5.64 66 11400 (1968) 1 (1964) 382 4 7 16 20 64 198 254 630 1140
2020-12-21 14:00 5.66 69 11400 (1968) 1 (1964) 382 4 7 16 20 64 198 254 630 1140
2020-12-21 13:30 5.66 69 11400 (1968) 1 (1964) 382 4 7 16 20 64 198 254 630 1140
2020-12-21 13:00 5.66 69 11400 (1968) 1 (1964) 382 4 7 16 20 64 198 254 630 1140
2020-12-21 12:30 5.66 69 11400 (1968) 1 (1964) 382 4 7 16 20 64 198 254 630 1140
2020-12-21 12:00 5.65 68 11400 (1968) 1 (1964) 382 4 7 16 20 64 198 254 630 1140
2020-12-21 11:30 5.66 69 11400 (1968) 1 (1964) 382 4 7 16 20 64 198 254 630 1140
2020-12-21 11:00 5.66 69 11400 (1968) 1 (1964) 382 4 7 16 20 64 198 254 630 1140
2020-12-21 10:30 5.66 69 11400 (1968) 1 (1964) 382 4 7 16 20 64 198 254 630 1140
2020-12-21 10:00 5.65 68 11400 (1968) 1 (1964) 382 4 7 16 20 64 198 254 630 1140
2020-12-21 09:30 5.67 70 11400 (1968) 1 (1964) 382 4 7 16 20 64 198 254 630 1140
2020-12-21 09:00 5.66 69 11400 (1968) 1 (1964) 382 4 7 16 20 64 198 254 630 1140
2020-12-21 08:30 5.66 69 11400 (1968) 1 (1964) 382 4 7 16 20 64 198 254 630 1140
2020-12-21 08:00 5.68 72 11400 (1968) 1 (1964) 382 4 7 16 20 64 198 254 630 1140
2020-12-21 07:30 5.74 81 11400 (1968) 1 (1964) 382 4 7 16 20 64 198 254 630 1140
2020-12-21 07:00 5.74 81 11400 (1968) 1 (1964) 382 4 7 16 20 64 198 254 630 1140
2020-12-21 06:30 5.73 79 11400 (1968) 1 (1964) 382 4 7 16 20 64 198 254 630 1140
2020-12-21 06:00 5.74 81 11400 (1968) 1 (1964) 382 4 7 16 20 64 198 254 630 1140
2020-12-21 05:30 5.75 82 11400 (1968) 1 (1964) 382 4 7 16 20 64 198 254 630 1140
2020-12-21 05:00 5.75 82 11400 (1968) 1 (1964) 382 4 7 16 20 64 198 254 630 1140
2020-12-21 04:30 5.75 82 11400 (1968) 1 (1964) 382 4 7 16 20 64 198 254 630 1140
2020-12-21 04:00 5.75 82 11400 (1968) 1 (1964) 382 4 7 16 20 64 198 254 630 1140
2020-12-21 03:30 5.75 82 11400 (1968) 1 (1964) 382 4 7 16 20 64 198 254 630 1140
2020-12-21 03:00 5.75 82 11400 (1968) 1 (1964) 382 4 7 16 20 64 198 254 630 1140
2020-12-21 02:30 5.75 82 11400 (1968) 1 (1964) 382 4 7 16 20 64 198 254 630 1140
2020-12-21 02:00 5.75 82 11400 (1968) 1 (1964) 382 4 7 16 20 64 198 254 630 1140
2020-12-21 01:30 5.75 82 11400 (1968) 1 (1964) 382 4 7 16 20 64 198 254 630 1140
2020-12-21 01:00 5.75 82 11400 (1968) 1 (1964) 382 4 7 16 20 64 198 254 630 1140
2020-12-21 00:30 5.75 82 11400 (1968) 1 (1964) 382 4 7 16 20 64 198 254 630 1140
2020-12-21 00:00 5.75 82 11400 (1968) 1 (1964) 382 4 7 16 20 64 198 254 630 1140
2020-12-20 23:30 5.75 82 10700 (1988) 1 (1964) 278 4 8 19 21 68 202 231 494 946
2020-12-20 23:00 5.75 82 10700 (1988) 1 (1964) 278 4 8 19 21 68 202 231 494 946
2020-12-20 22:30 5.75 82 10700 (1988) 1 (1964) 278 4 8 19 21 68 202 231 494 946
2020-12-20 22:00 5.75 82 10700 (1988) 1 (1964) 278 4 8 19 21 68 202 231 494 946
2020-12-20 21:30 5.75 82 10700 (1988) 1 (1964) 278 4 8 19 21 68 202 231 494 946
2020-12-20 21:00 5.75 82 10700 (1988) 1 (1964) 278 4 8 19 21 68 202 231 494 946
2020-12-20 20:30 5.75 82 10700 (1988) 1 (1964) 278 4 8 19 21 68 202 231 494 946
2020-12-20 20:00 5.75 82 10700 (1988) 1 (1964) 278 4 8 19 21 68 202 231 494 946
2020-12-20 19:30 5.76 84 10700 (1988) 1 (1964) 278 4 8 19 21 68 202 231 494 946
2020-12-20 19:00 5.76 84 10700 (1988) 1 (1964) 278 4 8 19 21 68 202 231 494 946
2020-12-20 18:30 5.76 84 10700 (1988) 1 (1964) 278 4 8 19 21 68 202 231 494 946
2020-12-20 18:00 5.76 84 10700 (1988) 1 (1964) 278 4 8 19 21 68 202 231 494 946
2020-12-20 17:30 5.76 84 10700 (1988) 1 (1964) 278 4 8 19 21 68 202 231 494 946
2020-12-20 17:00 5.76 84 10700 (1988) 1 (1964) 278 4 8 19 21 68 202 231 494 946
2020-12-20 16:30 5.76 84 10700 (1988) 1 (1964) 278 4 8 19 21 68 202 231 494 946
2020-12-20 16:00 5.76 84 10700 (1988) 1 (1964) 278 4 8 19 21 68 202 231 494 946
2020-12-20 15:30 5.76 84 10700 (1988) 1 (1964) 278 4 8 19 21 68 202 231 494 946
2020-12-20 15:00 5.76 84 10700 (1988) 1 (1964) 278 4 8 19 21 68 202 231 494 946
2020-12-20 14:30 5.76 84 10700 (1988) 1 (1964) 278 4 8 19 21 68 202 231 494 946
2020-12-20 14:00 5.76 84 10700 (1988) 1 (1964) 278 4 8 19 21 68 202 231 494 946
2020-12-20 13:30 5.77 86 10700 (1988) 1 (1964) 278 4 8 19 21 68 202 231 494 946
2020-12-20 13:00 5.77 86 10700 (1988) 1 (1964) 278 4 8 19 21 68 202 231 494 946
2020-12-20 12:30 5.77 86 10700 (1988) 1 (1964) 278 4 8 19 21 68 202 231 494 946
2020-12-20 12:00 5.77 86 10700 (1988) 1 (1964) 278 4 8 19 21 68 202 231 494 946
2020-12-20 11:30 5.77 86 10700 (1988) 1 (1964) 278 4 8 19 21 68 202 231 494 946
2020-12-20 11:00 5.77 86 10700 (1988) 1 (1964) 278 4 8 19 21 68 202 231 494 946
2020-12-20 10:30 5.77 86 10700 (1988) 1 (1964) 278 4 8 19 21 68 202 231 494 946
2020-12-20 10:00 5.77 86 10700 (1988) 1 (1964) 278 4 8 19 21 68 202 231 494 946
2020-12-20 09:30 5.77 86 10700 (1988) 1 (1964) 278 4 8 19 21 68 202 231 494 946
2020-12-20 09:00 5.77 86 10700 (1988) 1 (1964) 278 4 8 19 21 68 202 231 494 946
2020-12-20 08:30 5.77 86 10700 (1988) 1 (1964) 278 4 8 19 21 68 202 231 494 946
2020-12-20 08:00 5.78 87 10700 (1988) 1 (1964) 278 4 8 19 21 68 202 231 494 946
2020-12-20 07:30 5.78 87 10700 (1988) 1 (1964) 278 4 8 19 21 68 202 231 494 946
2020-12-20 07:00 5.78 87 10700 (1988) 1 (1964) 278 4 8 19 21 68 202 231 494 946
2020-12-20 06:30 5.78 87 10700 (1988) 1 (1964) 278 4 8 19 21 68 202 231 494 946
2020-12-20 06:00 5.78 87 10700 (1988) 1 (1964) 278 4 8 19 21 68 202 231 494 946
2020-12-20 05:30 5.78 87 10700 (1988) 1 (1964) 278 4 8 19 21 68 202 231 494 946
2020-12-20 05:00 5.78 87 10700 (1988) 1 (1964) 278 4 8 19 21 68 202 231 494 946
2020-12-20 04:30 5.78 87 10700 (1988) 1 (1964) 278 4 8 19 21 68 202 231 494 946
2020-12-20 04:00 5.78 87 10700 (1988) 1 (1964) 278 4 8 19 21 68 202 231 494 946
2020-12-20 03:30 5.78 87 10700 (1988) 1 (1964) 278 4 8 19 21 68 202 231 494 946
2020-12-20 03:00 5.78 87 10700 (1988) 1 (1964) 278 4 8 19 21 68 202 231 494 946
2020-12-20 02:30 5.78 87 10700 (1988) 1 (1964) 278 4 8 19 21 68 202 231 494 946
2020-12-20 02:00 5.78 87 10700 (1988) 1 (1964) 278 4 8 19 21 68 202 231 494 946
2020-12-20 01:30 5.78 87 10700 (1988) 1 (1964) 278 4 8 19 21 68 202 231 494 946
2020-12-20 01:00 5.78 87 10700 (1988) 1 (1964) 278 4 8 19 21 68 202 231 494 946
2020-12-20 00:30 5.78 87 10700 (1988) 1 (1964) 278 4 8 19 21 68 202 231 494 946
2020-12-20 00:00 5.78 87 10700 (1988) 1 (1964) 278 4 8 19 21 68 202 231 494 946

A total of 1482 rows are displayed for years 1923 through 2020.